Observation data for Rotan on 10/18/2019      Previous  Date       Current Mesonet Observations  Soil Data  Daily Summary Page  Observations in Plain Language
KRO1 180500Z 15012KT 17/M01 A2989 RMK A01 T01721007  RH  030%=      5-min Rain = 0
KRO1 180501Z 16011KT 17/M01 A2989 RMK A01 T01721007  RH  030%=      5-min Rain = 0
KRO1 180502Z 15014KT 17/M01 A2988 RMK A01 T01721007  RH  030%=      5-min Rain = 0
KRO1 180503Z 15014KT 17/M01 A2988 RMK A01 T01721007  RH  030%=      5-min Rain = 0
KRO1 180504Z 15013KT 17/M01 A2988 RMK A01 T01731007  RH  030%=      5-min Rain = 0
KRO1 180505Z 15013G18KT 17/M01 A2988 RMK A01 T01721007  RH  029%=      5-min Rain = 0
KRO1 180506Z 15014KT 17/M01 A2988 RMK A01 T01731007  RH  029%=      5-min Rain = 0
KRO1 180507Z 15013KT 17/M01 A2988 RMK A01 T01731007  RH  029%=      5-min Rain = 0
KRO1 180508Z 15011KT 17/M01 A2988 RMK A01 T01741006  RH  029%=      5-min Rain = 0
KRO1 180509Z 15012KT 17/M01 A2988 RMK A01 T01721006  RH  030%=      5-min Rain = 0
KRO1 180510Z 15010KT 17/M01 A2988 RMK A01 T01721006  RH  030%=      5-min Rain = 0
KRO1 180511Z 15011KT 17/M01 A2988 RMK A01 T01701006  RH  030%=      5-min Rain = 0
KRO1 180512Z 15011KT 17/M01 A2988 RMK A01 T01701006  RH  030%=      5-min Rain = 0
KRO1 180513Z 15013KT 17/M01 A2988 RMK A01 T01701006  RH  030%=      5-min Rain = 0
KRO1 180514Z 15012KT 17/M01 A2988 RMK A01 T01701006  RH  030%=      5-min Rain = 0
KRO1 180515Z 15012KT 17/M01 A2988 RMK A01 T01701006  RH  030%=      5-min Rain = 0
KRO1 180516Z 15015KT 17/M01 A2988 RMK A01 T01701006  RH  030%=      5-min Rain = 0
KRO1 180517Z 15011KT 17/M01 A2988 RMK A01 T01711006  RH  030%=      5-min Rain = 0
KRO1 180518Z 16011KT 17/M01 A2988 RMK A01 T01711006  RH  030%=      5-min Rain = 0
KRO1 180519Z 16011KT 17/M01 A2988 RMK A01 T01711005  RH  030%=      5-min Rain = 0
KRO1 180520Z 16011KT 17/M01 A2988 RMK A01 T01701005  RH  030%=      5-min Rain = 0
KRO1 180521Z 15014KT 17/M01 A2988 RMK A01 T01701005  RH  030%=      5-min Rain = 0
KRO1 180522Z 15012KT 17/M01 A2988 RMK A01 T01701005  RH  030%=      5-min Rain = 0
KRO1 180523Z 16014KT 17/M01 A2988 RMK A01 T01701006  RH  030%=      5-min Rain = 0
KRO1 180524Z 16012KT 17/M01 A2988 RMK A01 T01711005  RH  030%=      5-min Rain = 0
KRO1 180525Z 15013KT 17/M01 A2988 RMK A01 T01711006  RH  030%=      5-min Rain = 0
KRO1 180526Z 16013KT 17/M01 A2988 RMK A01 T01711005  RH  030%=      5-min Rain = 0
KRO1 180527Z 16013KT 17/M01 A2988 RMK A01 T01711006  RH  030%=      5-min Rain = 0
KRO1 180528Z 16013KT 17/M01 A2988 RMK A01 T01721005  RH  030%=      5-min Rain = 0
KRO1 180529Z 16011KT 17/M01 A2988 RMK A01 T01721005  RH  030%=      5-min Rain = 0
KRO1 180530Z 16013KT 17/M01 A2988 RMK A01 T01711005  RH  030%=      5-min Rain = 0
KRO1 180531Z 16012KT 17/M01 A2988 RMK A01 T01701005  RH  030%=      5-min Rain = 0
KRO1 180532Z 15014KT 17/M01 A2988 RMK A01 T01701005  RH  030%=      5-min Rain = 0
KRO1 180533Z 16012KT 17/M01 A2987 RMK A01 T01711005  RH  030%=      5-min Rain = 0
KRO1 180534Z 16013KT 17/M01 A2987 RMK A01 T01711005  RH  030%=      5-min Rain = 0
KRO1 180535Z 15013KT 17/M01 A2987 RMK A01 T01711005  RH  030%=      5-min Rain = 0
KRO1 180536Z 15012KT 17/M01 A2987 RMK A01 T01711005  RH  030%=      5-min Rain = 0
KRO1 180537Z 15013KT 17/M01 A2987 RMK A01 T01721005  RH  030%=      5-min Rain = 0
KRO1 180538Z 16013KT 17/M01 A2987 RMK A01 T01711005  RH  030%=      5-min Rain = 0
KRO1 180539Z 16011KT 17/M01 A2987 RMK A01 T01711005  RH  030%=      5-min Rain = 0
KRO1 180540Z 16014KT 17/M01 A2987 RMK A01 T01701005  RH  030%=      5-min Rain = 0
KRO1 180541Z 16014G19KT 17/M01 A2987 RMK A01 T01701005  RH  030%=      5-min Rain = 0
KRO1 180542Z 16011KT 17/M01 A2987 RMK A01 T01711006  RH  030%=      5-min Rain = 0
KRO1 180543Z 16014KT 17/M01 A2987 RMK A01 T01711005  RH  030%=      5-min Rain = 0
KRO1 180544Z 16013KT 17/M01 A2987 RMK A01 T01711005  RH  030%=      5-min Rain = 0
KRO1 180545Z 16011KT 17/M01 A2987 RMK A01 T01711005  RH  030%=      5-min Rain = 0
KRO1 180546Z 17012KT 17/M01 A2987 RMK A01 T01711005  RH  030%=      5-min Rain = 0
KRO1 180547Z 16011KT 17/M01 A2987 RMK A01 T01701005  RH  030%=      5-min Rain = 0
KRO1 180548Z 16011KT 17/M01 A2987 RMK A01 T01691005  RH  031%=      5-min Rain = 0
KRO1 180549Z 17013KT 17/M01 A2987 RMK A01 T01691005  RH  031%=      5-min Rain = 0
KRO1 180550Z 16014KT 17/M01 A2987 RMK A01 T01691005  RH  031%=      5-min Rain = 0
KRO1 180551Z 16011KT 17/M01 A2987 RMK A01 T01691006  RH  030%=      5-min Rain = 0
KRO1 180552Z 16015KT 17/M01 A2987 RMK A01 T01691006  RH  030%=      5-min Rain = 0
KRO1 180553Z 16014KT 17/M01 A2987 RMK A01 T01691006  RH  030%=      5-min Rain = 0
KRO1 180554Z 16012KT 17/M01 A2987 RMK A01 T01691006  RH  030%=      5-min Rain = 0
KRO1 180555Z 16012KT 17/M01 A2987 RMK A01 T01691007  RH  030%=      5-min Rain = 0
KRO1 180556Z 17014KT 17/M01 A2987 RMK A01 T01701006  RH  030%=      5-min Rain = 0
KRO1 180557Z 16012KT 17/M01 A2987 RMK A01 T01691007  RH  030%=      5-min Rain = 0
KRO1 180558Z 17013KT 17/M01 A2987 RMK A01 T01701006  RH  030%=      5-min Rain = 0
KRO1 180559Z 17014KT 17/M01 A2987 RMK A01 T01691007  RH  030%=      5-min Rain = 0
KRO1 180600Z 16014KT 17/M01 A2987 RMK A01 T01691007  RH  030%=      5-min Rain = 0
KRO1 180601Z 17014KT 17/M01 A2987 RMK A01 T01691007  RH  030%=      5-min Rain = 0
KRO1 180602Z 17015KT 17/M01 A2987 RMK A01 T01691008  RH  030%=      5-min Rain = 0
KRO1 180603Z 16016KT 17/M01 A2987 RMK A01 T01701007  RH  030%=      5-min Rain = 0
KRO1 180604Z 16015KT 17/M01 A2987 RMK A01 T01701007  RH  030%=      5-min Rain = 0
KRO1 180605Z 16015G20KT 17/M01 A2986 RMK A01 T01711007  RH  030%=      5-min Rain = 0
KRO1 180606Z 16015KT 17/M01 A2986 RMK A01 T01701007  RH  030%=      5-min Rain = 0
KRO1 180607Z 16013KT 17/M01 A2986 RMK A01 T01701007  RH  030%=      5-min Rain = 0
KRO1 180608Z 17014KT 17/M01 A2986 RMK A01 T01701007  RH  030%=      5-min Rain = 0
KRO1 180609Z 16016KT 17/M01 A2986 RMK A01 T01691006  RH  030%=      5-min Rain = 0
KRO1 180610Z 16014KT 17/M01 A2986 RMK A01 T01691006  RH  030%=      5-min Rain = 0
KRO1 180611Z 16013KT 17/M01 A2986 RMK A01 T01691006  RH  030%=      5-min Rain = 0
KRO1 180612Z 16015KT 17/M01 A2986 RMK A01 T01691005  RH  031%=      5-min Rain = 0
KRO1 180613Z 16013KT 17/M01 A2986 RMK A01 T01691005  RH  031%=      5-min Rain = 0
KRO1 180614Z 16013KT 17/M01 A2986 RMK A01 T01681005  RH  031%=      5-min Rain = 0
KRO1 180615Z 16014KT 17/M01 A2986 RMK A01 T01681005  RH  031%=      5-min Rain = 0
KRO1 180616Z 16014KT 17/M00 A2986 RMK A01 T01681004  RH  031%=      5-min Rain = 0
KRO1 180617Z 16014KT 17/M00 A2986 RMK A01 T01681004  RH  031%=      5-min Rain = 0
KRO1 180618Z 16012KT 17/M00 A2986 RMK A01 T01681004  RH  031%=      5-min Rain = 0
KRO1 180619Z 16012KT 17/M00 A2986 RMK A01 T01671004  RH  031%=      5-min Rain = 0
KRO1 180620Z 16015KT 17/M00 A2986 RMK A01 T01671003  RH  031%=      5-min Rain = 0
KRO1 180621Z 16013KT 17/M00 A2986 RMK A01 T01681003  RH  031%=      5-min Rain = 0
KRO1 180622Z 17013KT 17/M00 A2986 RMK A01 T01681003  RH  031%=      5-min Rain = 0
KRO1 180623Z 17011KT 17/M00 A2986 RMK A01 T01681002  RH  031%=      5-min Rain = 0
KRO1 180624Z 17013G19KT 17/M00 A2986 RMK A01 T01671002  RH  032%=      5-min Rain = 0
KRO1 180625Z 17012KT 17/M00 A2986 RMK A01 T01671002  RH  032%=      5-min Rain = 0
KRO1 180626Z 17014G19KT 17/M00 A2986 RMK A01 T01671001  RH  032%=      5-min Rain = 0
KRO1 180627Z 17014KT 17/M00 A2986 RMK A01 T01671001  RH  032%=      5-min Rain = 0
KRO1 180628Z 17013KT 17/M00 A2986 RMK A01 T01681001  RH  032%=      5-min Rain = 0
KRO1 180629Z 17012KT 17/M00 A2986 RMK A01 T01681001  RH  032%=      5-min Rain = 0
KRO1 180630Z 17012KT 17/00 A2986 RMK A01 T016800-0  RH  032%=      5-min Rain = 0
KRO1 180631Z 17013KT 17/00 A2986 RMK A01 T016700-0  RH  032%=      5-min Rain = 0
KRO1 180632Z 18014KT 17/00 A2986 RMK A01 T016700-0  RH  032%=      5-min Rain = 0
KRO1 180633Z 17013KT 17/00 A2986 RMK A01 T01670001  RH  032%=      5-min Rain = 0
KRO1 180634Z 17012KT 17/00 A2986 RMK A01 T01680001  RH  032%=      5-min Rain = 0
KRO1 180635Z 17013G18KT 17/00 A2986 RMK A01 T01680001  RH  032%=      5-min Rain = 0
KRO1 180636Z 17014KT 17/00 A2986 RMK A01 T01680001  RH  032%=      5-min Rain = 0
KRO1 180637Z 17014KT 17/00 A2986 RMK A01 T01680001  RH  032%=      5-min Rain = 0
KRO1 180638Z 17014KT 17/00 A2986 RMK A01 T01680001  RH  032%=      5-min Rain = 0
KRO1 180639Z 17016KT 17/00 A2986 RMK A01 T01680001  RH  032%=      5-min Rain = 0
KRO1 180640Z 17014KT 17/00 A2986 RMK A01 T01680001  RH  032%=      5-min Rain = 0
KRO1 180641Z 17013KT 17/00 A2986 RMK A01 T01690002  RH  032%=      5-min Rain = 0
KRO1 180642Z 17011KT 17/00 A2986 RMK A01 T01690002  RH  032%=      5-min Rain = 0
KRO1 180643Z 17013KT 17/00 A2986 RMK A01 T01680002  RH  032%=      5-min Rain = 0
KRO1 180644Z 17012KT 17/00 A2986 RMK A01 T01680002  RH  032%=      5-min Rain = 0
KRO1 180645Z 17012KT 17/00 A2985 RMK A01 T01670002  RH  033%=      5-min Rain = 0
KRO1 180646Z 17012KT 17/00 A2985 RMK A01 T01670002  RH  033%=      5-min Rain = 0
KRO1 180647Z 17012KT 17/00 A2985 RMK A01 T01670003  RH  033%=      5-min Rain = 0
KRO1 180648Z 17011KT 17/00 A2985 RMK A01 T01670003  RH  033%=      5-min Rain = 0
KRO1 180649Z 17012KT 17/00 A2985 RMK A01 T01670003  RH  033%=      5-min Rain = 0
KRO1 180650Z 17011KT 17/00 A2985 RMK A01 T01670003  RH  033%=      5-min Rain = 0
KRO1 180651Z 17013KT 17/00 A2985 RMK A01 T01670003  RH  033%=      5-min Rain = 0
KRO1 180652Z 17012KT 17/00 A2985 RMK A01 T01670004  RH  033%=      5-min Rain = 0
KRO1 180653Z 18013KT 17/00 A2985 RMK A01 T01670004  RH  033%=      5-min Rain = 0
KRO1 180654Z 18013KT 17/00 A2985 RMK A01 T01670004  RH  033%=      5-min Rain = 0
KRO1 180655Z 18014KT 17/00 A2985 RMK A01 T01670004  RH  033%=      5-min Rain = 0
KRO1 180656Z 18013KT 17/01 A2985 RMK A01 T01670005  RH  033%=      5-min Rain = 0
KRO1 180657Z 18014KT 17/00 A2985 RMK A01 T01670004  RH  033%=      5-min Rain = 0
KRO1 180658Z 17014KT 17/01 A2985 RMK A01 T01670005  RH  033%=      5-min Rain = 0
KRO1 180659Z 17012KT 17/01 A2985 RMK A01 T01680005  RH  033%=      5-min Rain = 0
KRO1 180700Z 17010KT 17/01 A2985 RMK A01 T01670006  RH  033%=      5-min Rain = 0
KRO1 180701Z 17014KT 17/01 A2985 RMK A01 T01660006  RH  034%=      5-min Rain = 0
KRO1 180702Z 18013KT 17/01 A2985 RMK A01 T01660006  RH  034%=      5-min Rain = 0
KRO1 180703Z 18013KT 17/01 A2985 RMK A01 T01660006  RH  034%=      5-min Rain = 0
KRO1 180704Z 18012KT 17/01 A2985 RMK A01 T01670007  RH  034%=      5-min Rain = 0
KRO1 180705Z 18013KT 17/01 A2985 RMK A01 T01670007  RH  034%=      5-min Rain = 0
KRO1 180706Z 17014KT 17/01 A2985 RMK A01 T01670007  RH  034%=      5-min Rain = 0
KRO1 180707Z 18012KT 17/01 A2985 RMK A01 T01670008  RH  034%=      5-min Rain = 0
KRO1 180708Z 18011KT 17/01 A2985 RMK A01 T01670008  RH  034%=      5-min Rain = 0
KRO1 180709Z 18012KT 17/01 A2985 RMK A01 T01670008  RH  034%=      5-min Rain = 0
KRO1 180710Z 18012KT 17/01 A2985 RMK A01 T01660009  RH  034%=      5-min Rain = 0
KRO1 180711Z 18011KT 17/01 A2985 RMK A01 T01660009  RH  034%=      5-min Rain = 0
KRO1 180712Z 18012KT 17/01 A2985 RMK A01 T01660010  RH  035%=      5-min Rain = 0
KRO1 180713Z 18012KT 17/01 A2985 RMK A01 T01660009  RH  035%=      5-min Rain = 0
KRO1 180714Z 18013KT 17/01 A2985 RMK A01 T01660009  RH  035%=      5-min Rain = 0
KRO1 180715Z 18012KT 17/01 A2985 RMK A01 T01660010  RH  035%=      5-min Rain = 0
KRO1 180716Z 18012KT 17/01 A2985 RMK A01 T01660010  RH  035%=      5-min Rain = 0
KRO1 180717Z 18011KT 17/01 A2985 RMK A01 T01660010  RH  035%=      5-min Rain = 0
KRO1 180718Z 18012KT 17/01 A2985 RMK A01 T01650010  RH  035%=      5-min Rain = 0
KRO1 180719Z 18013KT 16/01 A2985 RMK A01 T01640010  RH  035%=      5-min Rain = 0
KRO1 180720Z 18011KT 17/01 A2985 RMK A01 T01650010  RH  035%=      5-min Rain = 0
KRO1 180721Z 18011KT 16/01 A2985 RMK A01 T01640010  RH  035%=      5-min Rain = 0
KRO1 180722Z 18011KT 16/01 A2985 RMK A01 T01640010  RH  035%=      5-min Rain = 0
KRO1 180723Z 18011KT 16/01 A2985 RMK A01 T01630011  RH  036%=      5-min Rain = 0
KRO1 180724Z 18013KT 16/01 A2985 RMK A01 T01630011  RH  036%=      5-min Rain = 0
KRO1 180725Z 18011KT 16/01 A2985 RMK A01 T01630011  RH  036%=      5-min Rain = 0
KRO1 180726Z 18012KT 16/01 A2985 RMK A01 T01630012  RH  036%=      5-min Rain = 0
KRO1 180727Z 18012KT 16/01 A2985 RMK A01 T01640012  RH  036%=      5-min Rain = 0
KRO1 180728Z 18011KT 16/01 A2985 RMK A01 T01630012  RH  036%=      5-min Rain = 0
KRO1 180729Z 18013KT 16/01 A2985 RMK A01 T01620012  RH  036%=      5-min Rain = 0
KRO1 180730Z 18013KT 16/01 A2985 RMK A01 T01620013  RH  036%=      5-min Rain = 0
KRO1 180731Z 18011KT 16/01 A2985 RMK A01 T01620013  RH  037%=      5-min Rain = 0
KRO1 180732Z 18012KT 16/01 A2985 RMK A01 T01620014  RH  037%=      5-min Rain = 0
KRO1 180733Z 18010KT 16/01 A2985 RMK A01 T01620014  RH  037%=      5-min Rain = 0
KRO1 180734Z 18011KT 16/01 A2985 RMK A01 T01620014  RH  037%=      5-min Rain = 0
KRO1 180735Z 18011KT 16/01 A2985 RMK A01 T01610014  RH  037%=      5-min Rain = 0
KRO1 180736Z 18011KT 16/02 A2986 RMK A01 T01600015  RH  037%=      5-min Rain = 0
KRO1 180737Z 18011KT 16/02 A2986 RMK A01 T01600015  RH  038%=      5-min Rain = 0
KRO1 180738Z 18012KT 16/02 A2986 RMK A01 T01600016  RH  038%=      5-min Rain = 0
KRO1 180739Z 18011KT 16/02 A2985 RMK A01 T01600016  RH  038%=      5-min Rain = 0
KRO1 180740Z 18011KT 16/02 A2985 RMK A01 T01600016  RH  038%=      5-min Rain = 0
KRO1 180741Z 18011KT 16/02 A2985 RMK A01 T01600017  RH  038%=      5-min Rain = 0
KRO1 180742Z 18010KT 16/02 A2985 RMK A01 T01590017  RH  038%=      5-min Rain = 0
KRO1 180743Z 18011KT 16/02 A2985 RMK A01 T01590017  RH  038%=      5-min Rain = 0
KRO1 180744Z 18010KT 16/02 A2985 RMK A01 T01590017  RH  038%=      5-min Rain = 0
KRO1 180745Z 18011KT 16/02 A2985 RMK A01 T01590018  RH  039%=      5-min Rain = 0
KRO1 180746Z 18010KT 16/02 A2985 RMK A01 T01580018  RH  039%=      5-min Rain = 0
KRO1 180747Z 18011KT 16/02 A2985 RMK A01 T01580018  RH  039%=      5-min Rain = 0
KRO1 180748Z 18011KT 16/02 A2985 RMK A01 T01580018  RH  039%=      5-min Rain = 0
KRO1 180749Z 17011KT 16/02 A2985 RMK A01 T01580019  RH  039%=      5-min Rain = 0
KRO1 180750Z 18011KT 16/02 A2985 RMK A01 T01580019  RH  039%=      5-min Rain = 0
KRO1 180751Z 17012KT 16/02 A2985 RMK A01 T01570020  RH  039%=      5-min Rain = 0
KRO1 180752Z 18012KT 16/02 A2985 RMK A01 T01570020  RH  040%=      5-min Rain = 0
KRO1 180753Z 17011KT 16/02 A2985 RMK A01 T01570020  RH  040%=      5-min Rain = 0
KRO1 180754Z 18011KT 16/02 A2985 RMK A01 T01570021  RH  040%=      5-min Rain = 0
KRO1 180755Z 17011KT 16/02 A2985 RMK A01 T01570021  RH  040%=      5-min Rain = 0
KRO1 180756Z 17011KT 16/02 A2985 RMK A01 T01570021  RH  040%=      5-min Rain = 0
KRO1 180757Z 18011KT 16/02 A2985 RMK A01 T01560021  RH  040%=      5-min Rain = 0
KRO1 180758Z 18011KT 16/02 A2985 RMK A01 T01560021  RH  040%=      5-min Rain = 0
KRO1 180759Z 17012KT 16/02 A2985 RMK A01 T01550021  RH  040%=      5-min Rain = 0
KRO1 180800Z 17011KT 16/02 A2985 RMK A01 T01550022  RH  040%=      5-min Rain = 0
KRO1 180801Z 18012KT 16/02 A2985 RMK A01 T01550022  RH  041%=      5-min Rain = 0
KRO1 180802Z 17011KT 16/02 A2985 RMK A01 T01550022  RH  041%=      5-min Rain = 0
KRO1 180803Z 17011KT 16/02 A2985 RMK A01 T01550022  RH  041%=      5-min Rain = 0
KRO1 180804Z 18011KT 16/02 A2985 RMK A01 T01550022  RH  041%=      5-min Rain = 0
KRO1 180805Z 17010KT 15/02 A2985 RMK A01 T01540022  RH  041%=      5-min Rain = 0
KRO1 180806Z 17011KT 15/02 A2985 RMK A01 T01530022  RH  041%=      5-min Rain = 0
KRO1 180807Z 18010KT 15/02 A2985 RMK A01 T01540023  RH  041%=      5-min Rain = 0
KRO1 180808Z 18012KT 15/02 A2985 RMK A01 T01540024  RH  042%=      5-min Rain = 0
KRO1 180809Z 18010KT 15/02 A2985 RMK A01 T01530023  RH  042%=      5-min Rain = 0
KRO1 180810Z 18011KT 15/02 A2985 RMK A01 T01530024  RH  042%=      5-min Rain = 0
KRO1 180811Z 18011KT 15/03 A2985 RMK A01 T01530025  RH  042%=      5-min Rain = 0
KRO1 180812Z 18011KT 15/03 A2985 RMK A01 T01520025  RH  042%=      5-min Rain = 0
KRO1 180813Z 18011KT 15/03 A2984 RMK A01 T01520025  RH  042%=      5-min Rain = 0
KRO1 180814Z 18011KT 15/03 A2985 RMK A01 T01530026  RH  043%=      5-min Rain = 0
KRO1 180815Z 18010KT 15/03 A2985 RMK A01 T01530026  RH  043%=      5-min Rain = 0
KRO1 180816Z 18011KT 15/03 A2985 RMK A01 T01520027  RH  043%=      5-min Rain = 0
KRO1 180817Z 18010KT 15/03 A2985 RMK A01 T01530027  RH  043%=      5-min Rain = 0
KRO1 180818Z 18011KT 15/03 A2985 RMK A01 T01520027  RH  043%=      5-min Rain = 0
KRO1 180819Z 18010KT 15/03 A2985 RMK A01 T01520027  RH  043%=      5-min Rain = 0
KRO1 180820Z 17011KT 15/03 A2984 RMK A01 T01520028  RH  043%=      5-min Rain = 0
KRO1 180821Z 17011KT 15/03 A2984 RMK A01 T01520028  RH  043%=      5-min Rain = 0
KRO1 180822Z 17011KT 15/03 A2984 RMK A01 T01520028  RH  043%=      5-min Rain = 0
KRO1 180823Z 17010KT 15/03 A2984 RMK A01 T01510029  RH  044%=      5-min Rain = 0
KRO1 180824Z 17009KT 15/03 A2984 RMK A01 T01510029  RH  044%=      5-min Rain = 0
KRO1 180825Z 18009KT 15/03 A2984 RMK A01 T01500029  RH  044%=      5-min Rain = 0
KRO1 180826Z 17010KT 15/03 A2984 RMK A01 T01500029  RH  044%=      5-min Rain = 0
KRO1 180827Z 18009KT 15/03 A2984 RMK A01 T01500030  RH  044%=      5-min Rain = 0
KRO1 180828Z 18009KT 15/03 A2984 RMK A01 T01490029  RH  044%=      5-min Rain = 0
KRO1 180829Z 18009KT 15/03 A2984 RMK A01 T01490030  RH  045%=      5-min Rain = 0
KRO1 180830Z 17010KT 15/03 A2984 RMK A01 T01480030  RH  045%=      5-min Rain = 0
KRO1 180831Z 17009KT 15/03 A2984 RMK A01 T01480030  RH  045%=      5-min Rain = 0
KRO1 180832Z 17009KT 15/03 A2984 RMK A01 T01480031  RH  045%=      5-min Rain = 0
KRO1 180833Z 17010KT 15/03 A2984 RMK A01 T01480031  RH  046%=      5-min Rain = 0
KRO1 180834Z 17009KT 15/03 A2984 RMK A01 T01480032  RH  046%=      5-min Rain = 0
KRO1 180835Z 17009KT 15/03 A2984 RMK A01 T01470032  RH  046%=      5-min Rain = 0
KRO1 180836Z 17009KT 15/03 A2984 RMK A01 T01470032  RH  046%=      5-min Rain = 0
KRO1 180837Z 18009KT 15/03 A2984 RMK A01 T01460032  RH  046%=      5-min Rain = 0
KRO1 180838Z 18009KT 15/03 A2984 RMK A01 T01450032  RH  047%=      5-min Rain = 0
KRO1 180839Z 18009KT 15/03 A2984 RMK A01 T01450033  RH  047%=      5-min Rain = 0
KRO1 180840Z 18009KT 15/03 A2984 RMK A01 T01450034  RH  047%=      5-min Rain = 0
KRO1 180841Z 18009KT 15/03 A2984 RMK A01 T01450034  RH  047%=      5-min Rain = 0
KRO1 180842Z 18009KT 15/04 A2984 RMK A01 T01450035  RH  048%=      5-min Rain = 0
KRO1 180843Z 18009KT 15/04 A2984 RMK A01 T01450035  RH  048%=      5-min Rain = 0
KRO1 180844Z 18008KT 14/04 A2984 RMK A01 T01440037  RH  048%=      5-min Rain = 0
KRO1 180845Z 18008KT 14/04 A2984 RMK A01 T01440038  RH  049%=      5-min Rain = 0
KRO1 180846Z 18009KT 14/04 A2984 RMK A01 T01440038  RH  049%=      5-min Rain = 0
KRO1 180847Z 18008KT 14/04 A2984 RMK A01 T01440039  RH  049%=      5-min Rain = 0
KRO1 180848Z 18009KT 14/04 A2984 RMK A01 T01440040  RH  049%=      5-min Rain = 0
KRO1 180849Z 19008KT 15/04 A2984 RMK A01 T01450041  RH  050%=      5-min Rain = 0
KRO1 180850Z 19008KT 15/04 A2984 RMK A01 T01450042  RH  050%=      5-min Rain = 0
KRO1 180851Z 18009KT 15/04 A2984 RMK A01 T01460043  RH  050%=      5-min Rain = 0
KRO1 180852Z 19009KT 15/04 A2984 RMK A01 T01470044  RH  050%=      5-min Rain = 0
KRO1 180853Z 19008KT 15/05 A2984 RMK A01 T01470045  RH  050%=      5-min Rain = 0
KRO1 180854Z 19009KT 15/05 A2983 RMK A01 T01470047  RH  051%=      5-min Rain = 0
KRO1 180855Z 18010KT 15/05 A2983 RMK A01 T01480048  RH  051%=      5-min Rain = 0
KRO1 180856Z 18009KT 15/05 A2983 RMK A01 T01480049  RH  051%=      5-min Rain = 0
KRO1 180857Z 18009KT 15/05 A2983 RMK A01 T01500050  RH  051%=      5-min Rain = 0
KRO1 180858Z 19010KT 15/05 A2983 RMK A01 T01510051  RH  051%=      5-min Rain = 0
KRO1 180859Z 19010KT 15/05 A2983 RMK A01 T01520053  RH  052%=      5-min Rain = 0
KRO1 180900Z 19009KT 15/05 A2983 RMK A01 T01530053  RH  051%=      5-min Rain = 0
KRO1 180901Z 19010KT 15/05 A2983 RMK A01 T01540054  RH  051%=      5-min Rain = 0
KRO1 180902Z 19010KT 15/05 A2983 RMK A01 T01540054  RH  051%=      5-min Rain = 0
KRO1 180903Z 19010KT 15/06 A2983 RMK A01 T01540055  RH  052%=      5-min Rain = 0
KRO1 180904Z 19010KT 16/06 A2983 RMK A01 T01550056  RH  052%=      5-min Rain = 0
KRO1 180905Z 19009KT 16/06 A2983 RMK A01 T01560056  RH  051%=      5-min Rain = 0
KRO1 180906Z 19011KT 16/06 A2983 RMK A01 T01560056  RH  051%=      5-min Rain = 0
KRO1 180907Z 19010KT 16/06 A2983 RMK A01 T01560056  RH  052%=      5-min Rain = 0
KRO1 180908Z 19010KT 16/06 A2983 RMK A01 T01570057  RH  051%=      5-min Rain = 0
KRO1 180909Z 19011KT 16/06 A2983 RMK A01 T01570057  RH  051%=      5-min Rain = 0
KRO1 180910Z 19010KT 16/06 A2983 RMK A01 T01570058  RH  051%=      5-min Rain = 0
KRO1 180911Z 19010KT 16/06 A2983 RMK A01 T01580058  RH  051%=      5-min Rain = 0
KRO1 180912Z 19012KT 16/06 A2983 RMK A01 T01580058  RH  052%=      5-min Rain = 0
KRO1 180913Z 19011KT 16/06 A2983 RMK A01 T01580059  RH  052%=      5-min Rain = 0
KRO1 180914Z 19011KT 16/06 A2983 RMK A01 T01580059  RH  052%=      5-min Rain = 0
KRO1 180915Z 19010KT 16/06 A2983 RMK A01 T01580059  RH  052%=      5-min Rain = 0
KRO1 180916Z 19010KT 16/06 A2983 RMK A01 T01580059  RH  052%=      5-min Rain = 0
KRO1 180917Z 19009KT 16/06 A2983 RMK A01 T01590060  RH  052%=      5-min Rain = 0
KRO1 180918Z 19009KT 16/06 A2983 RMK A01 T01580060  RH  052%=      5-min Rain = 0
KRO1 180919Z 20009KT 16/06 A2983 RMK A01 T01570060  RH  052%=      5-min Rain = 0
KRO1 180920Z 19010KT 16/06 A2983 RMK A01 T01570060  RH  052%=      5-min Rain = 0
KRO1 180921Z 19009KT 16/06 A2983 RMK A01 T01570061  RH  053%=      5-min Rain = 0
KRO1 180922Z 19010KT 16/06 A2983 RMK A01 T01570061  RH  053%=      5-min Rain = 0
KRO1 180923Z 19009KT 16/06 A2983 RMK A01 T01570061  RH  053%=      5-min Rain = 0
KRO1 180924Z 19010KT 16/06 A2983 RMK A01 T01570061  RH  053%=      5-min Rain = 0
KRO1 180925Z 19009KT 16/06 A2983 RMK A01 T01570061  RH  053%=      5-min Rain = 0
KRO1 180926Z 18009KT 16/06 A2983 RMK A01 T01570061  RH  053%=      5-min Rain = 0
KRO1 180927Z 18009KT 16/06 A2983 RMK A01 T01560061  RH  053%=      5-min Rain = 0
KRO1 180928Z 18009KT 16/06 A2983 RMK A01 T01570061  RH  053%=      5-min Rain = 0
KRO1 180929Z 18008KT 16/06 A2983 RMK A01 T01570061  RH  053%=      5-min Rain = 0
KRO1 180930Z 19009KT 16/06 A2983 RMK A01 T01560060  RH  053%=      5-min Rain = 0
KRO1 180931Z 18009KT 16/06 A2982 RMK A01 T01550060  RH  053%=      5-min Rain = 0
KRO1 180932Z 18009KT 16/06 A2982 RMK A01 T01550061  RH  053%=      5-min Rain = 0
KRO1 180933Z 18008KT 16/06 A2982 RMK A01 T01550060  RH  053%=      5-min Rain = 0
KRO1 180934Z 18008KT 16/06 A2982 RMK A01 T01550061  RH  053%=      5-min Rain = 0
KRO1 180935Z 18009KT 15/06 A2982 RMK A01 T01540061  RH  054%=      5-min Rain = 0
KRO1 180936Z 18009KT 15/06 A2982 RMK A01 T01540061  RH  054%=      5-min Rain = 0
KRO1 180937Z 18008KT 15/06 A2982 RMK A01 T01540061  RH  054%=      5-min Rain = 0
KRO1 180938Z 19008KT 15/06 A2982 RMK A01 T01540062  RH  054%=      5-min Rain = 0
KRO1 180939Z 19008KT 15/06 A2982 RMK A01 T01530061  RH  054%=      5-min Rain = 0
KRO1 180940Z 19008KT 15/06 A2982 RMK A01 T01530061  RH  054%=      5-min Rain = 0
KRO1 180941Z 19008KT 15/06 A2982 RMK A01 T01520061  RH  055%=      5-min Rain = 0
KRO1 180942Z 18008KT 15/06 A2982 RMK A01 T01520062  RH  055%=      5-min Rain = 0
KRO1 180943Z 18009KT 15/06 A2982 RMK A01 T01520062  RH  055%=      5-min Rain = 0
KRO1 180944Z 18009KT 15/06 A2982 RMK A01 T01520062  RH  055%=      5-min Rain = 0
KRO1 180945Z 18009KT 15/06 A2982 RMK A01 T01520062  RH  055%=      5-min Rain = 0
KRO1 180946Z 18008KT 15/06 A2982 RMK A01 T01520062  RH  055%=      5-min Rain = 0
KRO1 180947Z 19008KT 15/06 A2982 RMK A01 T01520062  RH  055%=      5-min Rain = 0
KRO1 180948Z 19008KT 15/06 A2982 RMK A01 T01520062  RH  055%=      5-min Rain = 0
KRO1 180949Z 19008KT 15/06 A2982 RMK A01 T01510063  RH  055%=      5-min Rain = 0
KRO1 180950Z 19007KT 15/06 A2982 RMK A01 T01510063  RH  056%=      5-min Rain = 0
KRO1 180951Z 19008KT 15/06 A2982 RMK A01 T01510063  RH  056%=      5-min Rain = 0
KRO1 180952Z 20008KT 15/06 A2982 RMK A01 T01510063  RH  056%=      5-min Rain = 0
KRO1 180953Z 19008KT 15/06 A2982 RMK A01 T01510064  RH  056%=      5-min Rain = 0
KRO1 180954Z 19007KT 15/06 A2982 RMK A01 T01510064  RH  056%=      5-min Rain = 0
KRO1 180955Z 19007KT 15/06 A2982 RMK A01 T01500064  RH  056%=      5-min Rain = 0
KRO1 180956Z 19008KT 15/06 A2982 RMK A01 T01500064  RH  056%=      5-min Rain = 0
KRO1 180957Z 20007KT 15/07 A2982 RMK A01 T01500065  RH  057%=      5-min Rain = 0
KRO1 180958Z 19008KT 15/07 A2982 RMK A01 T01500065  RH  057%=      5-min Rain = 0
KRO1 180959Z 19008KT 15/07 A2982 RMK A01 T01510065  RH  057%=      5-min Rain = 0
KRO1 181000Z 19008KT 15/07 A2982 RMK A01 T01510065  RH  057%=      5-min Rain = 0
KRO1 181001Z 19007KT 15/07 A2982 RMK A01 T01510066  RH  057%=      5-min Rain = 0
KRO1 181002Z 19007KT 15/07 A2982 RMK A01 T01520066  RH  056%=      5-min Rain = 0
KRO1 181003Z 19007KT 15/07 A2982 RMK A01 T01510066  RH  057%=      5-min Rain = 0
KRO1 181004Z 19007KT 15/07 A2982 RMK A01 T01510066  RH  057%=      5-min Rain = 0
KRO1 181005Z 19007KT 15/07 A2982 RMK A01 T01510066  RH  057%=      5-min Rain = 0
KRO1 181006Z 19006KT 15/07 A2982 RMK A01 T01510066  RH  057%=      5-min Rain = 0
KRO1 181007Z 19006KT 15/07 A2982 RMK A01 T01500066  RH  057%=      5-min Rain = 0
KRO1 181008Z 19005KT 15/07 A2982 RMK A01 T01500066  RH  057%=      5-min Rain = 0
KRO1 181009Z 18005KT 15/07 A2982 RMK A01 T01490066  RH  057%=      5-min Rain = 0
KRO1 181010Z 19007KT 15/07 A2982 RMK A01 T01490065  RH  057%=      5-min Rain = 0
KRO1 181011Z 19005KT 15/07 A2982 RMK A01 T01490066  RH  058%=      5-min Rain = 0
KRO1 181012Z 19005KT 15/07 A2982 RMK A01 T01490066  RH  057%=      5-min Rain = 0
KRO1 181013Z 18006KT 15/07 A2982 RMK A01 T01490066  RH  057%=      5-min Rain = 0
KRO1 181014Z 19006KT 15/07 A2982 RMK A01 T01490066  RH  058%=      5-min Rain = 0
KRO1 181015Z 18005KT 15/07 A2982 RMK A01 T01490067  RH  058%=      5-min Rain = 0
KRO1 181016Z 18006KT 15/07 A2982 RMK A01 T01490067  RH  058%=      5-min Rain = 0
KRO1 181017Z 18005KT 15/07 A2981 RMK A01 T01490067  RH  058%=      5-min Rain = 0
KRO1 181018Z 18005KT 15/07 A2981 RMK A01 T01480067  RH  058%=      5-min Rain = 0
KRO1 181019Z 18005KT 15/07 A2981 RMK A01 T01490067  RH  058%=      5-min Rain = 0
KRO1 181020Z 18006KT 15/07 A2981 RMK A01 T01490067  RH  058%=      5-min Rain = 0
KRO1 181021Z 18005KT 15/07 A2981 RMK A01 T01490067  RH  058%=      5-min Rain = 0
KRO1 181022Z 19005KT 15/07 A2981 RMK A01 T01490067  RH  058%=      5-min Rain = 0
KRO1 181023Z 19005KT 15/07 A2981 RMK A01 T01490067  RH  058%=      5-min Rain = 0
KRO1 181024Z 19004KT 15/07 A2981 RMK A01 T01490067  RH  058%=      5-min Rain = 0
KRO1 181025Z 18006KT 15/07 A2981 RMK A01 T01480068  RH  058%=      5-min Rain = 0
KRO1 181026Z 18005KT 15/07 A2981 RMK A01 T01480068  RH  059%=      5-min Rain = 0
KRO1 181027Z 17005KT 15/07 A2981 RMK A01 T01480068  RH  059%=      5-min Rain = 0
KRO1 181028Z 18004KT 15/07 A2981 RMK A01 T01480068  RH  059%=      5-min Rain = 0
KRO1 181029Z 18003KT 15/07 A2981 RMK A01 T01480068  RH  059%=      5-min Rain = 0
KRO1 181030Z 18004KT 15/07 A2981 RMK A01 T01470067  RH  059%=      5-min Rain = 0
KRO1 181031Z 18004KT 15/07 A2981 RMK A01 T01470067  RH  059%=      5-min Rain = 0
KRO1 181032Z 18004KT 15/07 A2981 RMK A01 T01460067  RH  059%=      5-min Rain = 0
KRO1 181033Z 18004KT 15/07 A2981 RMK A01 T01450068  RH  060%=      5-min Rain = 0
KRO1 181034Z 18005KT 15/07 A2981 RMK A01 T01450068  RH  060%=      5-min Rain = 0
KRO1 181035Z 19006KT 15/07 A2981 RMK A01 T01450069  RH  060%=      5-min Rain = 0
KRO1 181036Z 18006KT 15/07 A2981 RMK A01 T01450069  RH  060%=      5-min Rain = 0
KRO1 181037Z 18006KT 15/07 A2981 RMK A01 T01450069  RH  060%=      5-min Rain = 0
KRO1 181038Z 18007KT 15/07 A2981 RMK A01 T01450069  RH  060%=      5-min Rain = 0
KRO1 181039Z 18006KT 15/07 A2981 RMK A01 T01450069  RH  061%=      5-min Rain = 0
KRO1 181040Z 18006KT 15/07 A2981 RMK A01 T01450070  RH  061%=      5-min Rain = 0
KRO1 181041Z 18006KT 15/07 A2981 RMK A01 T01460070  RH  060%=      5-min Rain = 0
KRO1 181042Z 19007KT 15/07 A2981 RMK A01 T01460070  RH  060%=      5-min Rain = 0
KRO1 181043Z 19006KT 15/07 A2981 RMK A01 T01460070  RH  060%=      5-min Rain = 0
KRO1 181044Z 19007KT 15/07 A2981 RMK A01 T01470070  RH  060%=      5-min Rain = 0
KRO1 181045Z 19007KT 15/07 A2981 RMK A01 T01470071  RH  060%=      5-min Rain = 0
KRO1 181046Z 20007KT 15/07 A2981 RMK A01 T01470070  RH  060%=      5-min Rain = 0
KRO1 181047Z 20005KT 15/07 A2981 RMK A01 T01480071  RH  060%=      5-min Rain = 0
KRO1 181048Z 20006KT 15/07 A2981 RMK A01 T01480071  RH  060%=      5-min Rain = 0
KRO1 181049Z 21005KT 15/07 A2982 RMK A01 T01470070  RH  060%=      5-min Rain = 0
KRO1 181050Z 21005KT 15/07 A2982 RMK A01 T01460070  RH  061%=      5-min Rain = 0
KRO1 181051Z 21005KT 15/07 A2982 RMK A01 T01450070  RH  061%=      5-min Rain = 0
KRO1 181052Z 21005KT 15/07 A2982 RMK A01 T01450070  RH  061%=      5-min Rain = 0
KRO1 181053Z 21005KT 14/07 A2982 RMK A01 T01440070  RH  061%=      5-min Rain = 0
KRO1 181054Z 21005KT 14/07 A2982 RMK A01 T01440071  RH  061%=      5-min Rain = 0
KRO1 181055Z 20005KT 14/07 A2982 RMK A01 T01440071  RH  061%=      5-min Rain = 0
KRO1 181056Z 21005KT 15/07 A2982 RMK A01 T01450071  RH  061%=      5-min Rain = 0
KRO1 181057Z 20005KT 15/07 A2982 RMK A01 T01450071  RH  061%=      5-min Rain = 0
KRO1 181058Z 20004KT 14/07 A2982 RMK A01 T01440070  RH  061%=      5-min Rain = 0
KRO1 181059Z 21004KT 14/07 A2982 RMK A01 T01430071  RH  062%=      5-min Rain = 0
KRO1 181100Z 21005KT 14/07 A2982 RMK A01 T01430071  RH  062%=      5-min Rain = 0
KRO1 181101Z 20005KT 14/07 A2982 RMK A01 T01420070  RH  062%=      5-min Rain = 0
KRO1 181102Z 20004KT 14/07 A2981 RMK A01 T01410070  RH  062%=      5-min Rain = 0
KRO1 181103Z 19005KT 14/07 A2981 RMK A01 T01410070  RH  062%=      5-min Rain = 0
KRO1 181104Z 19005KT 14/07 A2981 RMK A01 T01400070  RH  063%=      5-min Rain = 0
KRO1 181105Z 19005KT 14/07 A2981 RMK A01 T01400070  RH  063%=      5-min Rain = 0
KRO1 181106Z 19005KT 14/07 A2981 RMK A01 T01400070  RH  063%=      5-min Rain = 0
KRO1 181107Z 19006KT 14/07 A2982 RMK A01 T01400071  RH  063%=      5-min Rain = 0
KRO1 181108Z 19006KT 14/07 A2982 RMK A01 T01400071  RH  063%=      5-min Rain = 0
KRO1 181109Z 19006KT 14/07 A2982 RMK A01 T01410071  RH  063%=      5-min Rain = 0
KRO1 181110Z 18005KT 14/07 A2982 RMK A01 T01410071  RH  063%=      5-min Rain = 0
KRO1 181111Z 18005KT 14/07 A2981 RMK A01 T01410071  RH  063%=      5-min Rain = 0
KRO1 181112Z 18005KT 14/07 A2981 RMK A01 T01410071  RH  063%=      5-min Rain = 0
KRO1 181113Z 18005KT 14/07 A2981 RMK A01 T01410070  RH  063%=      5-min Rain = 0
KRO1 181114Z 18005KT 14/07 A2981 RMK A01 T01410071  RH  063%=      5-min Rain = 0
KRO1 181115Z 17005KT 14/07 A2981 RMK A01 T01410070  RH  063%=      5-min Rain = 0
KRO1 181116Z 18004KT 14/07 A2981 RMK A01 T01400070  RH  063%=      5-min Rain = 0
KRO1 181117Z 17005KT 14/07 A2981 RMK A01 T01400071  RH  063%=      5-min Rain = 0
KRO1 181118Z 17005KT 14/07 A2981 RMK A01 T01400071  RH  063%=      5-min Rain = 0
KRO1 181119Z 17003KT 14/07 A2981 RMK A01 T01400070  RH  063%=      5-min Rain = 0
KRO1 181120Z 16004KT 14/07 A2981 RMK A01 T01390070  RH  063%=      5-min Rain = 0
KRO1 181121Z 17004KT 14/07 A2981 RMK A01 T01390070  RH  063%=      5-min Rain = 0
KRO1 181122Z 16005KT 14/07 A2981 RMK A01 T01380069  RH  063%=      5-min Rain = 0
KRO1 181123Z 17005KT 14/07 A2981 RMK A01 T01370069  RH  063%=      5-min Rain = 0
KRO1 181124Z 17005KT 14/07 A2981 RMK A01 T01380070  RH  064%=      5-min Rain = 0
KRO1 181125Z 17005KT 14/07 A2981 RMK A01 T01370070  RH  064%=      5-min Rain = 0
KRO1 181126Z 17005KT 14/07 A2981 RMK A01 T01370070  RH  064%=      5-min Rain = 0
KRO1 181127Z 17005KT 14/07 A2981 RMK A01 T01370070  RH  064%=      5-min Rain = 0
KRO1 181128Z 17005KT 14/07 A2981 RMK A01 T01370070  RH  064%=      5-min Rain = 0
KRO1 181129Z 17005KT 14/07 A2981 RMK A01 T01370070  RH  064%=      5-min Rain = 0
KRO1 181130Z 17005KT 14/07 A2981 RMK A01 T01370070  RH  064%=      5-min Rain = 0
KRO1 181131Z 16005KT 14/07 A2981 RMK A01 T01370070  RH  064%=      5-min Rain = 0
KRO1 181132Z 16006KT 14/07 A2981 RMK A01 T01370070  RH  064%=      5-min Rain = 0
KRO1 181133Z 15006KT 14/07 A298 RMK A01 T01360070  RH  064%=      5-min Rain = 0
KRO1 181134Z 14004KT 14/07 A298 RMK A01 T01360069  RH  064%=      5-min Rain = 0
KRO1 181135Z 15005KT 14/07 A298 RMK A01 T01350069  RH  064%=      5-min Rain = 0
KRO1 181136Z 15006KT 13/07 A298 RMK A01 T01340069  RH  065%=      5-min Rain = 0
KRO1 181137Z 16006KT 13/07 A298 RMK A01 T01340069  RH  065%=      5-min Rain = 0
KRO1 181138Z 16006KT 13/07 A298 RMK A01 T01330069  RH  065%=      5-min Rain = 0
KRO1 181139Z 16005KT 13/07 A298 RMK A01 T01330068  RH  065%=      5-min Rain = 0
KRO1 181140Z 17005KT 13/07 A298 RMK A01 T01330068  RH  065%=      5-min Rain = 0
KRO1 181141Z 16007KT 13/07 A298 RMK A01 T01340069  RH  065%=      5-min Rain = 0
KRO1 181142Z 17008KT 13/07 A298 RMK A01 T01340069  RH  065%=      5-min Rain = 0
KRO1 181143Z 16009KT 14/07 A298 RMK A01 T01350070  RH  065%=      5-min Rain = 0
KRO1 181144Z 17009KT 14/07 A298 RMK A01 T01360070  RH  065%=      5-min Rain = 0
KRO1 181145Z 17009KT 14/07 A298 RMK A01 T01360071  RH  065%=      5-min Rain = 0
KRO1 181146Z 18008KT 14/07 A2981 RMK A01 T01360070  RH  065%=      5-min Rain = 0
KRO1 181147Z 19009KT 14/07 A2981 RMK A01 T01360071  RH  065%=      5-min Rain = 0
KRO1 181148Z 19010KT 14/07 A2981 RMK A01 T01360071  RH  065%=      5-min Rain = 0
KRO1 181149Z 19009KT 14/07 A2981 RMK A01 T01360071  RH  065%=      5-min Rain = 0
KRO1 181150Z 18008KT 14/07 A2981 RMK A01 T01370071  RH  065%=      5-min Rain = 0
KRO1 181151Z 18010KT 14/07 A298 RMK A01 T01370071  RH  064%=      5-min Rain = 0
KRO1 181152Z 17009KT 14/07 A298 RMK A01 T01380072  RH  064%=      5-min Rain = 0
KRO1 181153Z 19008KT 14/07 A298 RMK A01 T01390072  RH  064%=      5-min Rain = 0
KRO1 181154Z 20007KT 14/07 A2981 RMK A01 T01390072  RH  064%=      5-min Rain = 0
KRO1 181155Z 21008KT 14/07 A2981 RMK A01 T01390072  RH  064%=      5-min Rain = 0
KRO1 181156Z 22008KT 14/07 A2981 RMK A01 T01390072  RH  064%=      5-min Rain = 0
KRO1 181157Z 23007KT 14/07 A2981 RMK A01 T01390072  RH  064%=      5-min Rain = 0
KRO1 181158Z 23006KT 14/07 A2981 RMK A01 T01380072  RH  064%=      5-min Rain = 0
KRO1 181159Z 24007KT 14/07 A2982 RMK A01 T01370072  RH  065%=      5-min Rain = 0
KRO1 181200Z 25007KT 14/07 A2982 RMK A01 T01370072  RH  065%=      5-min Rain = 0
KRO1 181201Z 24007KT 14/07 A2982 RMK A01 T01370073  RH  065%=      5-min Rain = 0
KRO1 181202Z 24006KT 14/07 A2982 RMK A01 T01360072  RH  065%=      5-min Rain = 0
KRO1 181203Z 25007KT 14/07 A2982 RMK A01 T01360073  RH  065%=      5-min Rain = 0
KRO1 181204Z 25009KT 14/07 A2982 RMK A01 T01350072  RH  065%=      5-min Rain = 0
KRO1 181205Z 24009KT 14/07 A2982 RMK A01 T01350072  RH  066%=      5-min Rain = 0
KRO1 181206Z 23008KT 14/07 A2982 RMK A01 T01350073  RH  066%=      5-min Rain = 0
KRO1 181207Z 23008KT 14/07 A2982 RMK A01 T01350073  RH  066%=      5-min Rain = 0
KRO1 181208Z 22008KT 14/07 A2981 RMK A01 T01350073  RH  066%=      5-min Rain = 0
KRO1 181209Z 22007KT 13/07 A2981 RMK A01 T01340073  RH  066%=      5-min Rain = 0
KRO1 181210Z 23009KT 13/07 A2982 RMK A01 T01340073  RH  066%=      5-min Rain = 0
KRO1 181211Z 22009KT 13/07 A2982 RMK A01 T01340073  RH  067%=      5-min Rain = 0
KRO1 181212Z 20008KT 13/07 A2981 RMK A01 T01340074  RH  067%=      5-min Rain = 0
KRO1 181213Z 21009KT 14/07 A2981 RMK A01 T01350074  RH  067%=      5-min Rain = 0
KRO1 181214Z 22010KT 14/08 A2982 RMK A01 T01360075  RH  066%=      5-min Rain = 0
KRO1 181215Z 22009KT 14/08 A2982 RMK A01 T01370075  RH  066%=      5-min Rain = 0
KRO1 181216Z 20009KT 14/08 A2981 RMK A01 T01370075  RH  066%=      5-min Rain = 0
KRO1 181217Z 20009KT 14/08 A2981 RMK A01 T01380075  RH  066%=      5-min Rain = 0
KRO1 181218Z 21009KT 14/08 A2982 RMK A01 T01380075  RH  066%=      5-min Rain = 0
KRO1 181219Z 21009KT 14/08 A2982 RMK A01 T01380075  RH  066%=      5-min Rain = 0
KRO1 181220Z 21009KT 14/08 A2982 RMK A01 T01380076  RH  066%=      5-min Rain = 0
KRO1 181221Z 21009KT 14/08 A2982 RMK A01 T01380076  RH  066%=      5-min Rain = 0
KRO1 181222Z 21009KT 14/08 A2982 RMK A01 T01390077  RH  066%=      5-min Rain = 0
KRO1 181223Z 21009KT 14/08 A2981 RMK A01 T01400077  RH  066%=      5-min Rain = 0
KRO1 181224Z 21009KT 14/08 A2982 RMK A01 T01400077  RH  065%=      5-min Rain = 0
KRO1 181225Z 21010KT 14/08 A2982 RMK A01 T01410077  RH  065%=      5-min Rain = 0
KRO1 181226Z 21009KT 14/08 A2982 RMK A01 T01420077  RH  065%=      5-min Rain = 0
KRO1 181227Z 21010KT 14/08 A2982 RMK A01 T01430077  RH  065%=      5-min Rain = 0
KRO1 181228Z 21009KT 14/08 A2982 RMK A01 T01430077  RH  064%=      5-min Rain = 0
KRO1 181229Z 20009KT 14/08 A2982 RMK A01 T01430077  RH  064%=      5-min Rain = 0
KRO1 181230Z 21009KT 14/08 A2982 RMK A01 T01440077  RH  064%=      5-min Rain = 0
KRO1 181231Z 21011KT 14/08 A2982 RMK A01 T01430077  RH  064%=      5-min Rain = 0
KRO1 181232Z 21010KT 14/08 A2982 RMK A01 T01430077  RH  064%=      5-min Rain = 0
KRO1 181233Z 20011KT 14/08 A2982 RMK A01 T01440077  RH  064%=      5-min Rain = 0
KRO1 181234Z 21010KT 14/08 A2982 RMK A01 T01440077  RH  064%=      5-min Rain = 0
KRO1 181235Z 21011KT 15/08 A2982 RMK A01 T01450077  RH  064%=      5-min Rain = 0
KRO1 181236Z 21011KT 15/08 A2982 RMK A01 T01450077  RH  064%=      5-min Rain = 0
KRO1 181237Z 21010KT 15/08 A2982 RMK A01 T01450077  RH  064%=      5-min Rain = 0
KRO1 181238Z 21009KT 15/08 A2982 RMK A01 T01450077  RH  064%=      5-min Rain = 0
KRO1 181239Z 20011KT 14/08 A2982 RMK A01 T01440077  RH  064%=      5-min Rain = 0
KRO1 181240Z 21009KT 14/08 A2982 RMK A01 T01440077  RH  064%=      5-min Rain = 0
KRO1 181241Z 21010KT 14/08 A2982 RMK A01 T01440077  RH  064%=      5-min Rain = 0
KRO1 181242Z 21009KT 14/08 A2982 RMK A01 T01440077  RH  064%=      5-min Rain = 0
KRO1 181243Z 20009KT 14/08 A2982 RMK A01 T01430076  RH  064%=      5-min Rain = 0
KRO1 181244Z 20009KT 14/08 A2982 RMK A01 T01430076  RH  064%=      5-min Rain = 0
KRO1 181245Z 21009KT 14/08 A2982 RMK A01 T01430076  RH  064%=      5-min Rain = 0
KRO1 181246Z 20009KT 14/08 A2982 RMK A01 T01430076  RH  064%=      5-min Rain = 0
KRO1 181247Z 20008KT 14/08 A2982 RMK A01 T01430076  RH  064%=      5-min Rain = 0
KRO1 181248Z 20009KT 14/08 A2982 RMK A01 T01440077  RH  064%=      5-min Rain = 0
KRO1 181249Z 20008KT 14/08 A2982 RMK A01 T01430076  RH  064%=      5-min Rain = 0
KRO1 181250Z 20008KT 14/08 A2982 RMK A01 T01430076  RH  064%=      5-min Rain = 0
KRO1 181251Z 20008KT 14/08 A2982 RMK A01 T01430076  RH  064%=      5-min Rain = 0
KRO1 181252Z 20008KT 14/08 A2982 RMK A01 T01430076  RH  064%=      5-min Rain = 0
KRO1 181253Z 19008KT 14/08 A2982 RMK A01 T01420076  RH  064%=      5-min Rain = 0
KRO1 181254Z 20007KT 14/08 A2982 RMK A01 T01430076  RH  064%=      5-min Rain = 0
KRO1 181255Z 20009KT 14/08 A2982 RMK A01 T01430076  RH  064%=      5-min Rain = 0
KRO1 181256Z 20009KT 14/08 A2982 RMK A01 T01420075  RH  064%=      5-min Rain = 0
KRO1 181257Z 20009KT 14/08 A2982 RMK A01 T01420075  RH  064%=      5-min Rain = 0
KRO1 181258Z 20010KT 14/08 A2982 RMK A01 T01430076  RH  064%=      5-min Rain = 0
KRO1 181259Z 20010KT 14/08 A2982 RMK A01 T01430076  RH  064%=      5-min Rain = 0
KRO1 181300Z 20009KT 14/08 A2982 RMK A01 T01440076  RH  063%=      5-min Rain = 0
KRO1 181301Z 20010KT 14/08 A2982 RMK A01 T01440076  RH  063%=      5-min Rain = 0
KRO1 181302Z 20009KT 14/08 A2982 RMK A01 T01440075  RH  063%=      5-min Rain = 0
KRO1 181303Z 19009KT 14/08 A2982 RMK A01 T01440075  RH  063%=      5-min Rain = 0
KRO1 181304Z 20009KT 15/08 A2982 RMK A01 T01450076  RH  063%=      5-min Rain = 0
KRO1 181305Z 20009KT 15/08 A2982 RMK A01 T01450075  RH  063%=      5-min Rain = 0
KRO1 181306Z 19009KT 15/08 A2982 RMK A01 T01450076  RH  063%=      5-min Rain = 0
KRO1 181307Z 19010KT 15/08 A2982 RMK A01 T01450075  RH  063%=      5-min Rain = 0
KRO1 181308Z 20009KT 15/08 A2981 RMK A01 T01450076  RH  063%=      5-min Rain = 0
KRO1 181309Z 19009KT 15/08 A2981 RMK A01 T01450075  RH  063%=      5-min Rain = 0
KRO1 181310Z 19010KT 15/08 A2981 RMK A01 T01450075  RH  063%=      5-min Rain = 0
KRO1 181311Z 19008KT 15/08 A2981 RMK A01 T01460076  RH  063%=      5-min Rain = 0
KRO1 181312Z 19008KT 15/08 A2981 RMK A01 T01460075  RH  063%=      5-min Rain = 0
KRO1 181313Z 19009KT 15/08 A2981 RMK A01 T01460075  RH  063%=      5-min Rain = 0
KRO1 181314Z 19008KT 15/08 A2981 RMK A01 T01460075  RH  063%=      5-min Rain = 0
KRO1 181315Z 19009KT 15/08 A2981 RMK A01 T01460076  RH  063%=      5-min Rain = 0
KRO1 181316Z 19009KT 15/08 A2981 RMK A01 T01460075  RH  062%=      5-min Rain = 0
KRO1 181317Z 19009KT 15/08 A2981 RMK A01 T01460075  RH  062%=      5-min Rain = 0
KRO1 181318Z 19007KT 15/08 A2981 RMK A01 T01470075  RH  062%=      5-min Rain = 0
KRO1 181319Z 19009KT 15/08 A2981 RMK A01 T01470075  RH  062%=      5-min Rain = 0
KRO1 181320Z 19008KT 15/08 A2981 RMK A01 T01460075  RH  062%=      5-min Rain = 0
KRO1 181321Z 19007KT 15/08 A2981 RMK A01 T01470075  RH  062%=      5-min Rain = 0
KRO1 181322Z 19008KT 15/08 A2981 RMK A01 T01470075  RH  062%=      5-min Rain = 0
KRO1 181323Z 19007KT 15/08 A2981 RMK A01 T01460075  RH  062%=      5-min Rain = 0
KRO1 181324Z 19007KT 15/08 A2981 RMK A01 T01470075  RH  062%=      5-min Rain = 0
KRO1 181325Z 19007KT 15/08 A2981 RMK A01 T01470075  RH  062%=      5-min Rain = 0
KRO1 181326Z 19006KT 15/08 A2981 RMK A01 T01470075  RH  062%=      5-min Rain = 0
KRO1 181327Z 19007KT 15/08 A2981 RMK A01 T01470075  RH  062%=      5-min Rain = 0
KRO1 181328Z 19006KT 15/08 A2982 RMK A01 T01470076  RH  062%=      5-min Rain = 0
KRO1 181329Z 19007KT 15/08 A2982 RMK A01 T01470076  RH  062%=      5-min Rain = 0
KRO1 181330Z 19006KT 15/08 A2981 RMK A01 T01470076  RH  062%=      5-min Rain = 0
KRO1 181331Z 19006KT 15/08 A2981 RMK A01 T01470076  RH  062%=      5-min Rain = 0
KRO1 181332Z 19005KT 15/08 A2981 RMK A01 T01470076  RH  062%=      5-min Rain = 0
KRO1 181333Z 19006KT 15/08 A2981 RMK A01 T01470076  RH  062%=      5-min Rain = 0
KRO1 181334Z 19005KT 15/08 A2981 RMK A01 T01480076  RH  062%=      5-min Rain = 0
KRO1 181335Z 19005KT 15/08 A2981 RMK A01 T01480076  RH  062%=      5-min Rain = 0
KRO1 181336Z 19006KT 15/08 A2981 RMK A01 T01490076  RH  062%=      5-min Rain = 0
KRO1 181337Z 20006KT 15/08 A2981 RMK A01 T01490076  RH  061%=      5-min Rain = 0
KRO1 181338Z 20006KT 15/08 A2981 RMK A01 T01500076  RH  061%=      5-min Rain = 0
KRO1 181339Z 20006KT 15/08 A2982 RMK A01 T01500076  RH  061%=      5-min Rain = 0
KRO1 181340Z 20007KT 15/08 A2982 RMK A01 T01510076  RH  061%=      5-min Rain = 0
KRO1 181341Z 21006KT 15/08 A2982 RMK A01 T01520076  RH  061%=      5-min Rain = 0
KRO1 181342Z 20008KT 15/08 A2982 RMK A01 T01520076  RH  060%=      5-min Rain = 0
KRO1 181343Z 20006KT 15/08 A2982 RMK A01 T01530076  RH  060%=      5-min Rain = 0
KRO1 181344Z 20008KT 15/08 A2982 RMK A01 T01540076  RH  060%=      5-min Rain = 0
KRO1 181345Z 20008KT 15/08 A2982 RMK A01 T01540076  RH  059%=      5-min Rain = 0
KRO1 181346Z 19009KT 16/08 A2982 RMK A01 T01560076  RH  059%=      5-min Rain = 0
KRO1 181347Z 20011KT 16/08 A2981 RMK A01 T01570076  RH  058%=      5-min Rain = 0
KRO1 181348Z 20009KT 16/08 A2981 RMK A01 T01580075  RH  058%=      5-min Rain = 0
KRO1 181349Z 20012KT 16/08 A2982 RMK A01 T01590075  RH  057%=      5-min Rain = 0
KRO1 181350Z 20013KT 16/08 A2981 RMK A01 T01600075  RH  057%=      5-min Rain = 0
KRO1 181351Z 20011KT 16/07 A2982 RMK A01 T01610074  RH  057%=      5-min Rain = 0
KRO1 181352Z 20012KT 16/07 A2982 RMK A01 T01620074  RH  056%=      5-min Rain = 0
KRO1 181353Z 20009KT 16/08 A2982 RMK A01 T01620075  RH  056%=      5-min Rain = 0
KRO1 181354Z 20010KT 16/07 A2982 RMK A01 T01630074  RH  056%=      5-min Rain = 0
KRO1 181355Z 20011KT 16/07 A2981 RMK A01 T01640074  RH  055%=      5-min Rain = 0
KRO1 181356Z 20009KT 16/07 A2982 RMK A01 T01640074  RH  055%=      5-min Rain = 0
KRO1 181357Z 20010KT 17/07 A2982 RMK A01 T01650074  RH  055%=      5-min Rain = 0
KRO1 181358Z 20012KT 17/07 A2982 RMK A01 T01650074  RH  055%=      5-min Rain = 0
KRO1 181359Z 20013KT 17/07 A2982 RMK A01 T01660074  RH  054%=      5-min Rain = 0
KRO1 181400Z 19011KT 17/07 A2982 RMK A01 T01660074  RH  054%=      5-min Rain = 0
KRO1 181401Z 20012KT 17/07 A2982 RMK A01 T01670074  RH  054%=      5-min Rain = 0
KRO1 181402Z 19011KT 17/07 A2982 RMK A01 T01680074  RH  054%=      5-min Rain = 0
KRO1 181403Z 20011KT 17/08 A2982 RMK A01 T01690075  RH  054%=      5-min Rain = 0
KRO1 181404Z 19011KT 17/08 A2982 RMK A01 T01700075  RH  054%=      5-min Rain = 0
KRO1 181405Z 19013KT 17/07 A2982 RMK A01 T01700074  RH  053%=      5-min Rain = 0
KRO1 181406Z 20012KT 17/07 A2982 RMK A01 T01700074  RH  053%=      5-min Rain = 0
KRO1 181407Z 20011KT 17/08 A2982 RMK A01 T01710075  RH  053%=      5-min Rain = 0
KRO1 181408Z 20012KT 17/08 A2982 RMK A01 T01710075  RH  053%=      5-min Rain = 0
KRO1 181409Z 19011KT 17/08 A2982 RMK A01 T01720075  RH  053%=      5-min Rain = 0
KRO1 181410Z 20009KT 17/08 A2982 RMK A01 T01730076  RH  053%=      5-min Rain = 0
KRO1 181411Z 19010KT 17/08 A2982 RMK A01 T01740076  RH  052%=      5-min Rain = 0
KRO1 181412Z 19011KT 18/08 A2982 RMK A01 T01750076  RH  052%=      5-min Rain = 0
KRO1 181413Z 19013KT 18/08 A2982 RMK A01 T01760076  RH  052%=      5-min Rain = 0
KRO1 181414Z 19012KT 18/08 A2982 RMK A01 T01760075  RH  052%=      5-min Rain = 0
KRO1 181415Z 20012KT 18/08 A2982 RMK A01 T01760076  RH  052%=      5-min Rain = 0
KRO1 181416Z 20012KT 18/08 A2982 RMK A01 T01770076  RH  052%=      5-min Rain = 0
KRO1 181417Z 19013KT 18/08 A2981 RMK A01 T01780076  RH  051%=      5-min Rain = 0
KRO1 181418Z 20013KT 18/08 A2981 RMK A01 T01780076  RH  051%=      5-min Rain = 0
KRO1 181419Z 20013KT 18/08 A2982 RMK A01 T01780076  RH  051%=      5-min Rain = 0
KRO1 181420Z 19012KT 18/08 A2982 RMK A01 T01790077  RH  051%=      5-min Rain = 0
KRO1 181421Z 20015G20KT 18/08 A2982 RMK A01 T01790077  RH  051%=      5-min Rain = 0
KRO1 181422Z 19015KT 18/08 A2982 RMK A01 T01800077  RH  051%=      5-min Rain = 0
KRO1 181423Z 19015KT 18/08 A2982 RMK A01 T01800077  RH  051%=      5-min Rain = 0
KRO1 181424Z 20014KT 18/08 A2982 RMK A01 T01800077  RH  051%=      5-min Rain = 0
KRO1 181425Z 19015KT 18/08 A2982 RMK A01 T01810077  RH  051%=      5-min Rain = 0
KRO1 181426Z 20013KT 18/08 A2982 RMK A01 T01800077  RH  051%=      5-min Rain = 0
KRO1 181427Z 20014KT 18/08 A2982 RMK A01 T01810077  RH  051%=      5-min Rain = 0
KRO1 181428Z 20015KT 18/08 A2982 RMK A01 T01810078  RH  051%=      5-min Rain = 0
KRO1 181429Z 20014G19KT 18/08 A2982 RMK A01 T01820078  RH  051%=      5-min Rain = 0
KRO1 181430Z 19013KT 18/08 A2982 RMK A01 T01820079  RH  051%=      5-min Rain = 0
KRO1 181431Z 19016KT 18/08 A2982 RMK A01 T01830079  RH  051%=      5-min Rain = 0
KRO1 181432Z 20016KT 18/08 A2982 RMK A01 T01840079  RH  051%=      5-min Rain = 0
KRO1 181433Z 19015KT 18/08 A2982 RMK A01 T01840079  RH  051%=      5-min Rain = 0
KRO1 181434Z 20014KT 19/08 A2982 RMK A01 T01850081  RH  051%=      5-min Rain = 0
KRO1 181435Z 20014KT 19/08 A2981 RMK A01 T01850080  RH  050%=      5-min Rain = 0
KRO1 181436Z 20014KT 19/08 A2981 RMK A01 T01860081  RH  050%=      5-min Rain = 0
KRO1 181437Z 21012KT 19/08 A2981 RMK A01 T01850081  RH  050%=      5-min Rain = 0
KRO1 181438Z 20013KT 19/08 A2981 RMK A01 T01860081  RH  050%=      5-min Rain = 0
KRO1 181439Z 20013KT 19/08 A2981 RMK A01 T01860081  RH  050%=      5-min Rain = 0
KRO1 181440Z 20015KT 19/08 A2981 RMK A01 T01860081  RH  050%=      5-min Rain = 0
KRO1 181441Z 20017KT 19/08 A2981 RMK A01 T01860081  RH  050%=      5-min Rain = 0
KRO1 181442Z 20013KT 19/08 A2981 RMK A01 T01860082  RH  051%=      5-min Rain = 0
KRO1 181443Z 19016KT 19/08 A2981 RMK A01 T01870083  RH  051%=      5-min Rain = 0
KRO1 181444Z 19015KT 19/08 A2981 RMK A01 T01880083  RH  051%=      5-min Rain = 0
KRO1 181445Z 19015KT 19/08 A2981 RMK A01 T01890084  RH  051%=      5-min Rain = 0
KRO1 181446Z 20012KT 19/09 A2981 RMK A01 T01890085  RH  051%=      5-min Rain = 0
KRO1 181447Z 20013KT 19/09 A2981 RMK A01 T01910085  RH  050%=      5-min Rain = 0
KRO1 181448Z 20013KT 19/09 A2981 RMK A01 T01920085  RH  050%=      5-min Rain = 0
KRO1 181449Z 20013KT 19/09 A2981 RMK A01 T01930086  RH  050%=      5-min Rain = 0
KRO1 181450Z 19014KT 19/09 A2981 RMK A01 T01930086  RH  050%=      5-min Rain = 0
KRO1 181451Z 19014KT 19/09 A2981 RMK A01 T01930087  RH  050%=      5-min Rain = 0
KRO1 181452Z 20014KT 19/09 A2981 RMK A01 T01940087  RH  050%=      5-min Rain = 0
KRO1 181453Z 19012KT 19/09 A2982 RMK A01 T01940087  RH  050%=      5-min Rain = 0
KRO1 181454Z 20016KT 20/09 A2981 RMK A01 T01950087  RH  050%=      5-min Rain = 0
KRO1 181455Z 20011KT 20/09 A2981 RMK A01 T01950087  RH  050%=      5-min Rain = 0
KRO1 181456Z 19011G16KT 20/09 A2981 RMK A01 T01960088  RH  050%=      5-min Rain = 0
KRO1 181457Z 20014KT 20/09 A2981 RMK A01 T01970088  RH  049%=      5-min Rain = 0
KRO1 181458Z 19015KT 20/09 A2981 RMK A01 T01960088  RH  050%=      5-min Rain = 0
KRO1 181459Z 19015KT 20/09 A2981 RMK A01 T01970088  RH  049%=      5-min Rain = 0
KRO1 181500Z 19013KT 20/09 A2981 RMK A01 T01970088  RH  049%=      5-min Rain = 0
KRO1 181501Z 19016KT 20/09 A2981 RMK A01 T01980089  RH  049%=      5-min Rain = 0
KRO1 181502Z 18015KT 20/09 A2981 RMK A01 T01980089  RH  049%=      5-min Rain = 0
KRO1 181503Z 19014KT 20/09 A2981 RMK A01 T01980089  RH  049%=      5-min Rain = 0
KRO1 181504Z 19012KT 20/09 A2981 RMK A01 T01990090  RH  049%=      5-min Rain = 0
KRO1 181505Z 19015KT 20/09 A2981 RMK A01 T02000091  RH  049%=      5-min Rain = 0
KRO1 181506Z 19017KT 20/09 A2981 RMK A01 T02010090  RH  049%=      5-min Rain = 0
KRO1 181507Z 19014KT 20/09 A2981 RMK A01 T02010090  RH  049%=      5-min Rain = 0
KRO1 181508Z 19012KT 20/09 A2981 RMK A01 T02020091  RH  049%=      5-min Rain = 0
KRO1 181509Z 19014G19KT 20/09 A2981 RMK A01 T02040092  RH  049%=      5-min Rain = 0
KRO1 181510Z 19014KT 21/09 A2981 RMK A01 T02050091  RH  048%=      5-min Rain = 0
KRO1 181511Z 19012KT 21/09 A2981 RMK A01 T02050092  RH  048%=      5-min Rain = 0
KRO1 181512Z 19013KT 21/09 A2981 RMK A01 T02060092  RH  048%=      5-min Rain = 0
KRO1 181513Z 20013G18KT 21/09 A2981 RMK A01 T02070093  RH  048%=      5-min Rain = 0
KRO1 181514Z 20014KT 21/09 A2981 RMK A01 T02080093  RH  048%=      5-min Rain = 0
KRO1 181515Z 20011KT 21/09 A2981 RMK A01 T02090094  RH  048%=      5-min Rain = 0
KRO1 181516Z 19010KT 21/09 A2981 RMK A01 T02100094  RH  047%=      5-min Rain = 0
KRO1 181517Z 19008KT 21/10 A2981 RMK A01 T02120095  RH  047%=      5-min Rain = 0
KRO1 181518Z 18012KT 21/09 A2981 RMK A01 T02130093  RH  046%=      5-min Rain = 0
KRO1 181519Z 19014KT 21/09 A2981 RMK A01 T02130092  RH  046%=      5-min Rain = 0
KRO1 181520Z 20013KT 21/09 A2981 RMK A01 T02120093  RH  046%=      5-min Rain = 0
KRO1 181521Z 20013KT 21/09 A2981 RMK A01 T02120094  RH  047%=      5-min Rain = 0
KRO1 181522Z 20014KT 21/09 A2981 RMK A01 T02120093  RH  046%=      5-min Rain = 0
KRO1 181523Z 21012KT 21/09 A2981 RMK A01 T02120094  RH  047%=      5-min Rain = 0
KRO1 181524Z 19011KT 21/10 A2981 RMK A01 T02140095  RH  047%=      5-min Rain = 0
KRO1 181525Z 19011KT 22/09 A2981 RMK A01 T02150094  RH  046%=      5-min Rain = 0
KRO1 181526Z 18013KT 22/09 A2981 RMK A01 T02160094  RH  046%=      5-min Rain = 0
KRO1 181527Z 18014KT 22/09 A2981 RMK A01 T02150093  RH  046%=      5-min Rain = 0
KRO1 181528Z 18012KT 22/09 A2981 RMK A01 T02150093  RH  046%=      5-min Rain = 0
KRO1 181529Z 18011KT 22/10 A2981 RMK A01 T02160096  RH  046%=      5-min Rain = 0
KRO1 181530Z 19015KT 22/10 A298 RMK A01 T02180096  RH  046%=      5-min Rain = 0
KRO1 181531Z 19016KT 22/10 A298 RMK A01 T02180095  RH  045%=      5-min Rain = 0
KRO1 181532Z 19014KT 22/10 A298 RMK A01 T02170095  RH  046%=      5-min Rain = 0
KRO1 181533Z 19015KT 22/10 A298 RMK A01 T02170095  RH  046%=      5-min Rain = 0
KRO1 181534Z 19014KT 22/10 A298 RMK A01 T02160095  RH  046%=      5-min Rain = 0
KRO1 181535Z 19015KT 22/10 A298 RMK A01 T02160095  RH  046%=      5-min Rain = 0
KRO1 181536Z 20012KT 22/10 A298 RMK A01 T02180096  RH  046%=      5-min Rain = 0
KRO1 181537Z 19011KT 22/10 A298 RMK A01 T02190097  RH  046%=      5-min Rain = 0
KRO1 181538Z 18012KT 22/10 A2981 RMK A01 T02210098  RH  045%=      5-min Rain = 0
KRO1 181539Z 18012KT 22/10 A298 RMK A01 T02230095  RH  044%=      5-min Rain = 0
KRO1 181540Z 18012KT 22/10 A298 RMK A01 T02210096  RH  045%=      5-min Rain = 0
KRO1 181541Z 18011KT 22/10 A2981 RMK A01 T02190095  RH  045%=      5-min Rain = 0
KRO1 181542Z 18012KT 22/10 A2981 RMK A01 T02190096  RH  045%=      5-min Rain = 0
KRO1 181543Z 18011KT 22/10 A2981 RMK A01 T02200095  RH  045%=      5-min Rain = 0
KRO1 181544Z 19009KT 22/10 A2981 RMK A01 T02170095  RH  045%=      5-min Rain = 0
KRO1 181545Z 18011KT 22/10 A2981 RMK A01 T02160095  RH  046%=      5-min Rain = 0
KRO1 181546Z 18010KT 21/10 A2981 RMK A01 T02140095  RH  047%=      5-min Rain = 0
KRO1 181547Z 18011KT 21/10 A2981 RMK A01 T02140095  RH  047%=      5-min Rain = 0
KRO1 181548Z 19011KT 21/10 A2981 RMK A01 T02140096  RH  047%=      5-min Rain = 0
KRO1 181549Z 19009KT 22/10 A2981 RMK A01 T02160097  RH  047%=      5-min Rain = 0
KRO1 181550Z 20012KT 22/10 A2981 RMK A01 T02190098  RH  046%=      5-min Rain = 0
KRO1 181551Z 20013KT 22/10 A298 RMK A01 T02210096  RH  045%=      5-min Rain = 0
KRO1 181552Z 19010KT 22/10 A2981 RMK A01 T02200096  RH  045%=      5-min Rain = 0
KRO1 181553Z 17010KT 22/10 A298 RMK A01 T02200096  RH  045%=      5-min Rain = 0
KRO1 181554Z 19011G16KT 22/10 A298 RMK A01 T02210096  RH  045%=      5-min Rain = 0
KRO1 181555Z 19012KT 22/10 A298 RMK A01 T02220095  RH  044%=      5-min Rain = 0
KRO1 181556Z 20010KT 22/10 A298 RMK A01 T02210096  RH  045%=      5-min Rain = 0
KRO1 181557Z 20010KT 22/10 A298 RMK A01 T02210096  RH  045%=      5-min Rain = 0
KRO1 181558Z 21015KT 22/10 A298 RMK A01 T02240096  RH  044%=      5-min Rain = 0
KRO1 181559Z 20015KT 23/10 A298 RMK A01 T02250095  RH  043%=      5-min Rain = 0
KRO1 181600Z 20012KT 23/10 A298 RMK A01 T02250096  RH  044%=      5-min Rain = 0
KRO1 181601Z 21013KT 23/10 A298 RMK A01 T02250095  RH  044%=      5-min Rain = 0
KRO1 181602Z 20013KT 22/09 A298 RMK A01 T02220093  RH  044%=      5-min Rain = 0
KRO1 181603Z 20013KT 22/09 A298 RMK A01 T02180093  RH  045%=      5-min Rain = 0
KRO1 181604Z 20014KT 22/09 A298 RMK A01 T02150092  RH  045%=      5-min Rain = 0
KRO1 181605Z 19015KT 21/09 A298 RMK A01 T02130091  RH  046%=      5-min Rain = 0
KRO1 181606Z 19015KT 21/09 A298 RMK A01 T02130092  RH  046%=      5-min Rain = 0
KRO1 181607Z 19014KT 22/09 A298 RMK A01 T02160094  RH  046%=      5-min Rain = 0
KRO1 181608Z 19013KT 22/09 A298 RMK A01 T02200093  RH  044%=      5-min Rain = 0
KRO1 181609Z 19011KT 22/10 A298 RMK A01 T02220095  RH  044%=      5-min Rain = 0
KRO1 181610Z 19013KT 23/10 A298 RMK A01 T02260095  RH  043%=      5-min Rain = 0
KRO1 181611Z 20013KT 22/09 A298 RMK A01 T02240093  RH  043%=      5-min Rain = 0
KRO1 181612Z 19011KT 22/09 A298 RMK A01 T02200093  RH  044%=      5-min Rain = 0
KRO1 181613Z 19010KT 22/10 A298 RMK A01 T02210095  RH  045%=      5-min Rain = 0
KRO1 181614Z 20012KT 23/10 A298 RMK A01 T02280097  RH  043%=      5-min Rain = 0
KRO1 181615Z 20010KT 23/10 A298 RMK A01 T02320097  RH  042%=      5-min Rain = 0
KRO1 181616Z 20015KT 23/10 A298 RMK A01 T02340095  RH  041%=      5-min Rain = 0
KRO1 181617Z 19012KT 23/09 A298 RMK A01 T02320093  RH  041%=      5-min Rain = 0
KRO1 181618Z 20012KT 23/10 A298 RMK A01 T02320095  RH  042%=      5-min Rain = 0
KRO1 181619Z 20012KT 23/09 A298 RMK A01 T02330094  RH  041%=      5-min Rain = 0
KRO1 181620Z 19012KT 23/10 A298 RMK A01 T02340095  RH  041%=      5-min Rain = 0
KRO1 181621Z 19015KT 24/09 A298 RMK A01 T02350094  RH  041%=      5-min Rain = 0
KRO1 181622Z 19011KT 24/10 A298 RMK A01 T02360095  RH  041%=      5-min Rain = 0
KRO1 181623Z 18011KT 24/10 A2979 RMK A01 T02380096  RH  041%=      5-min Rain = 0
KRO1 181624Z 19013KT 24/10 A2979 RMK A01 T02390095  RH  040%=      5-min Rain = 0
KRO1 181625Z 19014KT 24/10 A2979 RMK A01 T02390095  RH  040%=      5-min Rain = 0
KRO1 181626Z 19013KT 24/10 A2979 RMK A01 T02390095  RH  040%=      5-min Rain = 0
KRO1 181627Z 19012KT 24/10 A2979 RMK A01 T02390096  RH  040%=      5-min Rain = 0
KRO1 181628Z 21013KT 24/10 A2979 RMK A01 T02410096  RH  040%=      5-min Rain = 0
KRO1 181629Z 19013KT 24/10 A2979 RMK A01 T02420095  RH  039%=      5-min Rain = 0
KRO1 181630Z 18010KT 24/10 A2979 RMK A01 T02410096  RH  040%=      5-min Rain = 0
KRO1 181631Z 18010KT 24/10 A2979 RMK A01 T02430097  RH  040%=      5-min Rain = 0
KRO1 181632Z 18009KT 25/10 A2979 RMK A01 T02460099  RH  039%=      5-min Rain = 0
KRO1 181633Z 18011KT 25/10 A2979 RMK A01 T02490098  RH  039%=      5-min Rain = 0
KRO1 181634Z 20011KT 25/10 A2979 RMK A01 T02480096  RH  038%=      5-min Rain = 0
KRO1 181635Z 19013KT 25/10 A2979 RMK A01 T02460096  RH  039%=      5-min Rain = 0
KRO1 181636Z 19013KT 25/10 A2979 RMK A01 T02450096  RH  039%=      5-min Rain = 0
KRO1 181637Z 19012KT 25/10 A2979 RMK A01 T02450097  RH  039%=      5-min Rain = 0
KRO1 181638Z 19013KT 25/10 A2979 RMK A01 T02460096  RH  039%=      5-min Rain = 0
KRO1 181639Z 20011KT 25/10 A2979 RMK A01 T02450097  RH  039%=      5-min Rain = 0
KRO1 181640Z 19010KT 25/10 A2979 RMK A01 T02460098  RH  039%=      5-min Rain = 0
KRO1 181641Z 20013KT 25/10 A2979 RMK A01 T02460096  RH  039%=      5-min Rain = 0
KRO1 181642Z 20013KT 24/10 A2979 RMK A01 T02430095  RH  039%=      5-min Rain = 0
KRO1 181643Z 19015KT 24/09 A2979 RMK A01 T02400094  RH  040%=      5-min Rain = 0
KRO1 181644Z 20013KT 24/10 A2979 RMK A01 T02410096  RH  040%=      5-min Rain = 0
KRO1 181645Z 20010KT 24/10 A2979 RMK A01 T02430095  RH  039%=      5-min Rain = 0
KRO1 181646Z 20010KT 24/10 A2979 RMK A01 T02430097  RH  039%=      5-min Rain = 0
KRO1 181647Z 19013KT 24/10 A2979 RMK A01 T02440096  RH  039%=      5-min Rain = 0
KRO1 181648Z 18012KT 24/10 A2979 RMK A01 T02440096  RH  039%=      5-min Rain = 0
KRO1 181649Z 19011KT 25/10 A2979 RMK A01 T02450097  RH  039%=      5-min Rain = 0
KRO1 181650Z 18009KT 25/10 A2979 RMK A01 T02480099  RH  039%=      5-min Rain = 0
KRO1 181651Z 18013KT 25/10 A2979 RMK A01 T02500097  RH  038%=      5-min Rain = 0
KRO1 181652Z 19009KT 25/10 A2979 RMK A01 T02490097  RH  038%=      5-min Rain = 0
KRO1 181653Z 19011KT 25/10 A2978 RMK A01 T02480097  RH  038%=      5-min Rain = 0
KRO1 181654Z 21011G16KT 25/10 A2978 RMK A01 T02470097  RH  039%=      5-min Rain = 0
KRO1 181655Z 19013KT 25/10 A2978 RMK A01 T02480097  RH  038%=      5-min Rain = 0
KRO1 181656Z 19012KT 25/10 A2978 RMK A01 T02480096  RH  038%=      5-min Rain = 0
KRO1 181657Z 19011KT 25/10 A2978 RMK A01 T02470096  RH  038%=      5-min Rain = 0
KRO1 181658Z 19010G15KT 25/10 A2978 RMK A01 T02500099  RH  038%=      5-min Rain = 0
KRO1 181659Z 18015KT 26/10 A2978 RMK A01 T02550099  RH  037%=      5-min Rain = 0
KRO1 181700Z 17014KT 26/10 A2978 RMK A01 T02580098  RH  036%=      5-min Rain = 0
KRO1 181701Z 18014KT 26/10 A2978 RMK A01 T02570097  RH  036%=      5-min Rain = 0
KRO1 181702Z 17011KT 26/10 A2978 RMK A01 T02560098  RH  037%=      5-min Rain = 0
KRO1 181703Z 18013KT 26/10 A2978 RMK A01 T02580099  RH  037%=      5-min Rain = 0
KRO1 181704Z 18014KT 26/10 A2978 RMK A01 T02610099  RH  036%=      5-min Rain = 0
KRO1 181705Z 18011KT 26/10 A2978 RMK A01 T02600098  RH  036%=      5-min Rain = 0
KRO1 181706Z 20013KT 26/10 A2978 RMK A01 T02590099  RH  036%=      5-min Rain = 0
KRO1 181707Z 20014KT 26/10 A2978 RMK A01 T02620098  RH  036%=      5-min Rain = 0
KRO1 181708Z 20012KT 26/10 A2978 RMK A01 T02620097  RH  035%=      5-min Rain = 0
KRO1 181709Z 19012KT 26/10 A2978 RMK A01 T02600098  RH  036%=      5-min Rain = 0
KRO1 181710Z 19013KT 26/10 A2978 RMK A01 T02600097  RH  036%=      5-min Rain = 0
KRO1 181711Z 19015KT 26/10 A2977 RMK A01 T02600097  RH  036%=      5-min Rain = 0
KRO1 181712Z 19015KT 26/10 A2977 RMK A01 T02600097  RH  036%=      5-min Rain = 0
KRO1 181713Z 19014KT 26/10 A2977 RMK A01 T02600096  RH  036%=      5-min Rain = 0
KRO1 181714Z 20011KT 26/10 A2977 RMK A01 T02610098  RH  036%=      5-min Rain = 0
KRO1 181715Z 21013KT 26/10 A2977 RMK A01 T02620099  RH  036%=      5-min Rain = 0
KRO1 181716Z 20012KT 26/10 A2977 RMK A01 T02610098  RH  036%=      5-min Rain = 0
KRO1 181717Z 18012KT 26/10 A2978 RMK A01 T02600099  RH  036%=      5-min Rain = 0
KRO1 181718Z 18011KT 26/10 A2977 RMK A01 T02600098  RH  036%=      5-min Rain = 0
KRO1 181719Z 19012KT 26/10 A2977 RMK A01 T02600099  RH  036%=      5-min Rain = 0
KRO1 181720Z 20013KT 27/10 A2977 RMK A01 T02650100  RH  035%=      5-min Rain = 0
KRO1 181721Z 21013KT 27/10 A2977 RMK A01 T02670098  RH  035%=      5-min Rain = 0
KRO1 181722Z 20015KT 27/10 A2977 RMK A01 T02670098  RH  035%=      5-min Rain = 0
KRO1 181723Z 20013G18KT 27/10 A2977 RMK A01 T02660098  RH  035%=      5-min Rain = 0
KRO1 181724Z 19011KT 27/10 A2977 RMK A01 T02660099  RH  035%=      5-min Rain = 0
KRO1 181725Z 20010KT 27/10 A2977 RMK A01 T02660099  RH  035%=      5-min Rain = 0
KRO1 181726Z 20008KT 27/10 A2977 RMK A01 T02650098  RH  035%=      5-min Rain = 0
KRO1 181727Z 19009KT 26/10 A2977 RMK A01 T02630099  RH  036%=      5-min Rain = 0
KRO1 181728Z 18012KT 26/10 A2977 RMK A01 T02620100  RH  036%=      5-min Rain = 0
KRO1 181729Z 18013KT 26/10 A2977 RMK A01 T02610098  RH  036%=      5-min Rain = 0
KRO1 181730Z 18012KT 26/10 A2977 RMK A01 T02600098  RH  036%=      5-min Rain = 0
KRO1 181731Z 19012KT 26/10 A2977 RMK A01 T02600097  RH  036%=      5-min Rain = 0
KRO1 181732Z 17012KT 26/10 A2977 RMK A01 T02590098  RH  036%=      5-min Rain = 0
KRO1 181733Z 18013KT 26/10 A2977 RMK A01 T02590098  RH  036%=      5-min Rain = 0
KRO1 181734Z 18013KT 26/10 A2977 RMK A01 T02590099  RH  036%=      5-min Rain = 0
KRO1 181735Z 18011KT 26/10 A2977 RMK A01 T02620100  RH  036%=      5-min Rain = 0
KRO1 181736Z 18012KT 27/10 A2976 RMK A01 T02670102  RH  035%=      5-min Rain = 0
KRO1 181737Z 19015KT 27/10 A2976 RMK A01 T02700099  RH  034%=      5-min Rain = 0
KRO1 181738Z 18012KT 27/10 A2976 RMK A01 T02670099  RH  035%=      5-min Rain = 0
KRO1 181739Z 18013KT 27/10 A2976 RMK A01 T02660098  RH  035%=      5-min Rain = 0
KRO1 181740Z 17012KT 27/10 A2976 RMK A01 T02650098  RH  035%=      5-min Rain = 0
KRO1 181741Z 19012KT 26/10 A2976 RMK A01 T02640099  RH  035%=      5-min Rain = 0
KRO1 181742Z 19016KT 26/10 A2976 RMK A01 T02630099  RH  036%=      5-min Rain = 0
KRO1 181743Z 20014KT 26/10 A2976 RMK A01 T02620098  RH  036%=      5-min Rain = 0
KRO1 181744Z 19014KT 26/10 A2976 RMK A01 T02600098  RH  036%=      5-min Rain = 0
KRO1 181745Z 20011KT 26/10 A2976 RMK A01 T02600099  RH  036%=      5-min Rain = 0
KRO1 181746Z 19011KT 26/10 A2976 RMK A01 T02590099  RH  036%=      5-min Rain = 0
KRO1 181747Z 18009KT 26/10 A2976 RMK A01 T02590099  RH  036%=      5-min Rain = 0
KRO1 181748Z 18011KT 26/10 A2976 RMK A01 T02600100  RH  036%=      5-min Rain = 0
KRO1 181749Z 17013KT 26/10 A2976 RMK A01 T02610098  RH  036%=      5-min Rain = 0
KRO1 181750Z 17012KT 26/10 A2976 RMK A01 T02610099  RH  036%=      5-min Rain = 0
KRO1 181751Z 17012KT 26/10 A2976 RMK A01 T02610099  RH  036%=      5-min Rain = 0
KRO1 181752Z 18016KT 26/10 A2976 RMK A01 T02630100  RH  036%=      5-min Rain = 0
KRO1 181753Z 18014KT 26/10 A2976 RMK A01 T02640099  RH  035%=      5-min Rain = 0
KRO1 181754Z 18011KT 26/10 A2975 RMK A01 T02630100  RH  036%=      5-min Rain = 0
KRO1 181755Z 19014KT 26/10 A2975 RMK A01 T02640100  RH  036%=      5-min Rain = 0
KRO1 181756Z 19015KT 26/10 A2975 RMK A01 T02640099  RH  035%=      5-min Rain = 0
KRO1 181757Z 19013KT 26/10 A2975 RMK A01 T02640099  RH  036%=      5-min Rain = 0
KRO1 181758Z 17013KT 27/10 A2975 RMK A01 T02670102  RH  035%=      5-min Rain = 0
KRO1 181759Z 17015KT 27/10 A2975 RMK A01 T02710100  RH  034%=      5-min Rain = 0
KRO1 181800Z 17012KT 27/10 A2975 RMK A01 T02700100  RH  034%=      5-min Rain = 0
KRO1 181801Z 18013KT 27/10 A2975 RMK A01 T02690100  RH  035%=      5-min Rain = 0
KRO1 181802Z 17013KT 27/10 A2975 RMK A01 T02680100  RH  035%=      5-min Rain = 0
KRO1 181803Z 17012KT 27/10 A2974 RMK A01 T02660099  RH  035%=      5-min Rain = 0
KRO1 181804Z 18011KT 27/10 A2974 RMK A01 T02660101  RH  035%=      5-min Rain = 0
KRO1 181805Z 18012KT 27/10 A2974 RMK A01 T02690103  RH  035%=      5-min Rain = 0
KRO1 181806Z 18012KT 27/10 A2974 RMK A01 T02730101  RH  034%=      5-min Rain = 0
KRO1 181807Z 18013KT 27/10 A2974 RMK A01 T02730102  RH  034%=      5-min Rain = 0
KRO1 181808Z 18013KT 27/10 A2974 RMK A01 T02730102  RH  034%=      5-min Rain = 0
KRO1 181809Z 19012KT 27/10 A2974 RMK A01 T02730103  RH  034%=      5-min Rain = 0
KRO1 181810Z 18010KT 27/10 A2974 RMK A01 T02740102  RH  034%=      5-min Rain = 0
KRO1 181811Z 19013KT 28/10 A2974 RMK A01 T02750104  RH  034%=      5-min Rain = 0
KRO1 181812Z 20011KT 28/10 A2973 RMK A01 T02790104  RH  034%=      5-min Rain = 0
KRO1 181813Z 18011KT 28/11 A2973 RMK A01 T02830106  RH  033%=      5-min Rain = 0
KRO1 181814Z 18010KT 29/10 A2973 RMK A01 T02860103  RH  032%=      5-min Rain = 0
KRO1 181815Z 17013KT 29/10 A2973 RMK A01 T02860104  RH  032%=      5-min Rain = 0
KRO1 181816Z 16014G19KT 29/10 A2973 RMK A01 T02850104  RH  032%=      5-min Rain = 0
KRO1 181817Z 17016KT 29/10 A2973 RMK A01 T02850104  RH  032%=      5-min Rain = 0
KRO1 181818Z 18016KT 29/10 A2973 RMK A01 T02850104  RH  032%=      5-min Rain = 0
KRO1 181819Z 18014G20KT 29/10 A2973 RMK A01 T02860104  RH  032%=      5-min Rain = 0
KRO1 181820Z 18014KT 29/10 A2973 RMK A01 T02870104  RH  032%=      5-min Rain = 0
KRO1 181821Z 17014KT 28/10 A2973 RMK A01 T02840103  RH  032%=      5-min Rain = 0
KRO1 181822Z 17015KT 28/10 A2973 RMK A01 T02820103  RH  033%=      5-min Rain = 0
KRO1 181823Z 18013KT 28/10 A2973 RMK A01 T02790102  RH  033%=      5-min Rain = 0
KRO1 181824Z 17013KT 28/10 A2973 RMK A01 T02780104  RH  034%=      5-min Rain = 0
KRO1 181825Z 17014KT 28/11 A2973 RMK A01 T02820105  RH  033%=      5-min Rain = 0
KRO1 181826Z 16014KT 29/10 A2973 RMK A01 T02850104  RH  032%=      5-min Rain = 0
KRO1 181827Z 16013G18KT 29/10 A2972 RMK A01 T02870104  RH  032%=      5-min Rain = 0
KRO1 181828Z 16016KT 29/10 A2972 RMK A01 T02880104  RH  032%=      5-min Rain = 0
KRO1 181829Z 16012KT 29/10 A2972 RMK A01 T02880104  RH  032%=      5-min Rain = 0
KRO1 181830Z 17015KT 29/10 A2972 RMK A01 T02880104  RH  032%=      5-min Rain = 0
KRO1 181831Z 18015KT 29/10 A2972 RMK A01 T02890104  RH  032%=      5-min Rain = 0
KRO1 181832Z 19014KT 29/11 A2972 RMK A01 T02900105  RH  032%=      5-min Rain = 0
KRO1 181833Z 18012KT 29/11 A2972 RMK A01 T02910105  RH  031%=      5-min Rain = 0
KRO1 181834Z 17013KT 29/10 A2972 RMK A01 T02910103  RH  031%=      5-min Rain = 0
KRO1 181835Z 18014KT 29/10 A2972 RMK A01 T02900104  RH  031%=      5-min Rain = 0
KRO1 181836Z 18015KT 29/10 A2972 RMK A01 T02900104  RH  032%=      5-min Rain = 0
KRO1 181837Z 18014KT 29/10 A2972 RMK A01 T02910104  RH  031%=      5-min Rain = 0
KRO1 181838Z 16013KT 29/11 A2972 RMK A01 T02920105  RH  031%=      5-min Rain = 0
KRO1 181839Z 17014KT 29/10 A2972 RMK A01 T02930103  RH  031%=      5-min Rain = 0
KRO1 181840Z 18013KT 29/10 A2971 RMK A01 T02920104  RH  031%=      5-min Rain = 0
KRO1 181841Z 18013KT 29/10 A2971 RMK A01 T02920104  RH  031%=      5-min Rain = 0
KRO1 181842Z 18011KT 29/10 A2971 RMK A01 T02920104  RH  031%=      5-min Rain = 0
KRO1 181843Z 18014KT 29/10 A2971 RMK A01 T02930104  RH  031%=      5-min Rain = 0
KRO1 181844Z 17012KT 29/11 A2971 RMK A01 T02940105  RH  031%=      5-min Rain = 0
KRO1 181845Z 17015KT 30/11 A2971 RMK A01 T02970106  RH  031%=      5-min Rain = 0
KRO1 181846Z 18014KT 30/11 A2971 RMK A01 T02980105  RH  030%=      5-min Rain = 0
KRO1 181847Z 18015KT 30/11 A2971 RMK A01 T02970106  RH  031%=      5-min Rain = 0
KRO1 181848Z 19013KT 30/11 A2971 RMK A01 T02970106  RH  031%=      5-min Rain = 0
KRO1 181849Z 19013KT 30/11 A2971 RMK A01 T02960105  RH  030%=      5-min Rain = 0
KRO1 181850Z 19011KT 30/11 A2971 RMK A01 T02960106  RH  031%=      5-min Rain = 0
KRO1 181851Z 18011KT 30/11 A2971 RMK A01 T02970106  RH  031%=      5-min Rain = 0
KRO1 181852Z 17014KT 30/11 A2971 RMK A01 T03000107  RH  030%=      5-min Rain = 0
KRO1 181853Z 17014KT 30/11 A2971 RMK A01 T03000105  RH  030%=      5-min Rain = 0
KRO1 181854Z 18012KT 30/11 A2971 RMK A01 T02970105  RH  030%=      5-min Rain = 0
KRO1 181855Z 17012KT 30/11 A2971 RMK A01 T02970108  RH  031%=      5-min Rain = 0
KRO1 181856Z 19012KT 30/11 A297 RMK A01 T03010105  RH  030%=      5-min Rain = 0
KRO1 181857Z 20012KT 30/11 A297 RMK A01 T03010108  RH  030%=      5-min Rain = 0
KRO1 181858Z 20011KT 30/11 A297 RMK A01 T03040109  RH  030%=      5-min Rain = 0
KRO1 181859Z 21010KT 31/11 A297 RMK A01 T03060109  RH  030%=      5-min Rain = 0
KRO1 181900Z 20017KT 31/11 A297 RMK A01 T03070109  RH  030%=      5-min Rain = 0
KRO1 181901Z 20017KT 31/11 A297 RMK A01 T03060107  RH  029%=      5-min Rain = 0
KRO1 181902Z 20015KT 30/11 A297 RMK A01 T03010107  RH  030%=      5-min Rain = 0
KRO1 181903Z 19018KT 30/11 A297 RMK A01 T02990107  RH  030%=      5-min Rain = 0
KRO1 181904Z 19015KT 30/11 A297 RMK A01 T02960105  RH  031%=      5-min Rain = 0
KRO1 181905Z 21013KT 30/11 A297 RMK A01 T02960106  RH  031%=      5-min Rain = 0
KRO1 181906Z 21012KT 30/11 A297 RMK A01 T02950106  RH  031%=      5-min Rain = 0
KRO1 181907Z 20011KT 30/11 A297 RMK A01 T02950107  RH  031%=      5-min Rain = 0
KRO1 181908Z 18011KT 30/11 A297 RMK A01 T02950107  RH  031%=      5-min Rain = 0
KRO1 181909Z 18010KT 29/11 A2969 RMK A01 T02920105  RH  031%=      5-min Rain = 0
KRO1 181910Z 15011KT 29/11 A2969 RMK A01 T02910105  RH  032%=      5-min Rain = 0
KRO1 181911Z 17009KT 29/11 A2969 RMK A01 T02910105  RH  031%=      5-min Rain = 0
KRO1 181912Z 18008KT 29/11 A2969 RMK A01 T02920106  RH  032%=      5-min Rain = 0
KRO1 181913Z 18012KT 30/11 A2969 RMK A01 T02950107  RH  031%=      5-min Rain = 0
KRO1 181914Z 18012KT 30/11 A2969 RMK A01 T02980107  RH  031%=      5-min Rain = 0
KRO1 181915Z 18011KT 30/11 A2969 RMK A01 T02990107  RH  031%=      5-min Rain = 0
KRO1 181916Z 18012KT 30/11 A2969 RMK A01 T02990107  RH  031%=      5-min Rain = 0
KRO1 181917Z 18015KT 30/11 A2969 RMK A01 T02990108  RH  031%=      5-min Rain = 0
KRO1 181918Z 20012KT 30/11 A2969 RMK A01 T03000108  RH  031%=      5-min Rain = 0
KRO1 181919Z 21012G17KT 30/11 A2969 RMK A01 T02990108  RH  031%=      5-min Rain = 0
KRO1 181920Z 19010KT 30/11 A2969 RMK A01 T03000110  RH  031%=      5-min Rain = 0
KRO1 181921Z 18009KT 31/11 A2969 RMK A01 T03050110  RH  030%=      5-min Rain = 0
KRO1 181922Z 21012KT 31/11 A2968 RMK A01 T03070110  RH  030%=      5-min Rain = 0
KRO1 181923Z 21016KT 30/11 A2968 RMK A01 T03040108  RH  030%=      5-min Rain = 0
KRO1 181924Z 21016KT 30/11 A2968 RMK A01 T02980107  RH  031%=      5-min Rain = 0
KRO1 181925Z 20014KT 30/11 A2968 RMK A01 T02950107  RH  031%=      5-min Rain = 0
KRO1 181926Z 19013KT 29/11 A2968 RMK A01 T02940108  RH  032%=      5-min Rain = 0
KRO1 181927Z 19012KT 29/11 A2968 RMK A01 T02930108  RH  032%=      5-min Rain = 0
KRO1 181928Z 19014KT 29/11 A2968 RMK A01 T02930108  RH  032%=      5-min Rain = 0
KRO1 181929Z 19011KT 29/11 A2968 RMK A01 T02930107  RH  032%=      5-min Rain = 0
KRO1 181930Z 19010KT 29/11 A2968 RMK A01 T02930108  RH  032%=      5-min Rain = 0
KRO1 181931Z 19008KT 29/11 A2968 RMK A01 T02920108  RH  032%=      5-min Rain = 0
KRO1 181932Z 18011KT 29/11 A2968 RMK A01 T02940109  RH  032%=      5-min Rain = 0
KRO1 181933Z 19012KT 30/11 A2968 RMK A01 T02970111  RH  032%=      5-min Rain = 0
KRO1 181934Z 21011KT 30/11 A2968 RMK A01 T03010112  RH  031%=      5-min Rain = 0
KRO1 181935Z 21011KT 31/11 A2968 RMK A01 T03050112  RH  030%=      5-min Rain = 0
KRO1 181936Z 19010KT 31/11 A2968 RMK A01 T03070113  RH  030%=      5-min Rain = 0
KRO1 181937Z 19012KT 31/11 A2968 RMK A01 T03090112  RH  030%=      5-min Rain = 0
KRO1 181938Z 20012KT 31/11 A2968 RMK A01 T03090112  RH  030%=      5-min Rain = 0
KRO1 181939Z 19013G18KT 31/11 A2968 RMK A01 T03080111  RH  030%=      5-min Rain = 0
KRO1 181940Z 19017KT 31/11 A2968 RMK A01 T03060111  RH  030%=      5-min Rain = 0
KRO1 181941Z 19016KT 31/11 A2967 RMK A01 T03060111  RH  030%=      5-min Rain = 0
KRO1 181942Z 19012KT 31/11 A2968 RMK A01 T03050111  RH  030%=      5-min Rain = 0
KRO1 181943Z 20012KT 30/11 A2967 RMK A01 T03040111  RH  030%=      5-min Rain = 0
KRO1 181944Z 20009KT 30/11 A2967 RMK A01 T03030111  RH  031%=      5-min Rain = 0
KRO1 181945Z 20010KT 31/11 A2967 RMK A01 T03050112  RH  030%=      5-min Rain = 0
KRO1 181946Z 21014KT 31/11 A2967 RMK A01 T03070112  RH  030%=      5-min Rain = 0
KRO1 181947Z 21013G18KT 31/11 A2967 RMK A01 T03080113  RH  030%=      5-min Rain = 0
KRO1 181948Z 21016KT 31/11 A2967 RMK A01 T03100113  RH  030%=      5-min Rain = 0
KRO1 181949Z 19015KT 31/11 A2967 RMK A01 T03090111  RH  030%=      5-min Rain = 0
KRO1 181950Z 18016KT 31/11 A2967 RMK A01 T03080111  RH  030%=      5-min Rain = 0
KRO1 181951Z 18013KT 31/11 A2967 RMK A01 T03060111  RH  030%=      5-min Rain = 0
KRO1 181952Z 17010KT 31/11 A2967 RMK A01 T03060112  RH  030%=      5-min Rain = 0
KRO1 181953Z 17014KT 31/11 A2967 RMK A01 T03090112  RH  030%=      5-min Rain = 0
KRO1 181954Z 18013KT 31/11 A2967 RMK A01 T03100113  RH  030%=      5-min Rain = 0
KRO1 181955Z 20017KT 31/11 A2967 RMK A01 T03100114  RH  030%=      5-min Rain = 0
KRO1 181956Z 20016KT 31/11 A2967 RMK A01 T03110113  RH  030%=      5-min Rain = 0
KRO1 181957Z 20012KT 31/11 A2967 RMK A01 T03090113  RH  030%=      5-min Rain = 0
KRO1 181958Z 22014KT 31/11 A2967 RMK A01 T03080114  RH  030%=      5-min Rain = 0
KRO1 181959Z 22010KT 31/11 A2967 RMK A01 T03100113  RH  030%=      5-min Rain = 0
KRO1 182000Z 21010KT 31/11 A2967 RMK A01 T03100114  RH  030%=      5-min Rain = 0
KRO1 182001Z 18014KT 31/12 A2967 RMK A01 T03120115  RH  030%=      5-min Rain = 0
KRO1 182002Z 18013KT 31/11 A2967 RMK A01 T03130113  RH  029%=      5-min Rain = 0
KRO1 182003Z 19013KT 31/11 A2967 RMK A01 T03110113  RH  030%=      5-min Rain = 0
KRO1 182004Z 18010KT 31/11 A2966 RMK A01 T03100112  RH  030%=      5-min Rain = 0
KRO1 182005Z 20008KT 31/12 A2966 RMK A01 T03090115  RH  030%=      5-min Rain = 0
KRO1 182006Z 20011KT 31/12 A2966 RMK A01 T03140117  RH  030%=      5-min Rain = 0
KRO1 182007Z 19012KT 32/11 A2966 RMK A01 T03160114  RH  029%=      5-min Rain = 0
KRO1 182008Z 19014KT 31/11 A2966 RMK A01 T03140114  RH  029%=      5-min Rain = 0
KRO1 182009Z 19008KT 31/11 A2966 RMK A01 T03130113  RH  029%=      5-min Rain = 0
KRO1 182010Z 20010KT 31/11 A2966 RMK A01 T03130114  RH  029%=      5-min Rain = 0
KRO1 182011Z 21015KT 31/12 A2966 RMK A01 T03140116  RH  030%=      5-min Rain = 0
KRO1 182012Z 21011KT 31/12 A2966 RMK A01 T03140115  RH  029%=      5-min Rain = 0
KRO1 182013Z 20009KT 31/12 A2966 RMK A01 T03140116  RH  030%=      5-min Rain = 0
KRO1 182014Z 19011G16KT 32/12 A2966 RMK A01 T03150116  RH  030%=      5-min Rain = 0
KRO1 182015Z 18014G19KT 32/12 A2966 RMK A01 T03160115  RH  029%=      5-min Rain = 0
KRO1 182016Z 17015KT 32/12 A2965 RMK A01 T03150116  RH  029%=      5-min Rain = 0
KRO1 182017Z 17014KT 32/12 A2965 RMK A01 T03150115  RH  029%=      5-min Rain = 0
KRO1 182018Z 17014KT 32/12 A2965 RMK A01 T03150115  RH  029%=      5-min Rain = 0
KRO1 182019Z 16013KT 31/12 A2965 RMK A01 T03140115  RH  029%=      5-min Rain = 0
KRO1 182020Z 17013KT 31/11 A2965 RMK A01 T03140114  RH  029%=      5-min Rain = 0
KRO1 182021Z 17011KT 31/11 A2965 RMK A01 T03120113  RH  029%=      5-min Rain = 0
KRO1 182022Z 20010KT 31/12 A2965 RMK A01 T03120117  RH  030%=      5-min Rain = 0
KRO1 182023Z 19014KT 32/12 A2965 RMK A01 T03160118  RH  030%=      5-min Rain = 0
KRO1 182024Z 20015KT 32/12 A2965 RMK A01 T03180117  RH  029%=      5-min Rain = 0
KRO1 182025Z 20018KT 32/12 A2965 RMK A01 T03160117  RH  030%=      5-min Rain = 0
KRO1 182026Z 20016KT 32/12 A2965 RMK A01 T03150116  RH  029%=      5-min Rain = 0
KRO1 182027Z 19013G18KT 31/12 A2965 RMK A01 T03130116  RH  030%=      5-min Rain = 0
KRO1 182028Z 19015KT 31/12 A2965 RMK A01 T03120117  RH  030%=      5-min Rain = 0
KRO1 182029Z 20012KT 31/12 A2965 RMK A01 T03110116  RH  030%=      5-min Rain = 0
KRO1 182030Z 20012KT 31/12 A2965 RMK A01 T03130119  RH  030%=      5-min Rain = 0
KRO1 182031Z 21010KT 32/12 A2965 RMK A01 T03150117  RH  030%=      5-min Rain = 0
KRO1 182032Z 21010KT 32/12 A2965 RMK A01 T03160120  RH  030%=      5-min Rain = 0
KRO1 182033Z 19011KT 32/12 A2965 RMK A01 T03180119  RH  030%=      5-min Rain = 0
KRO1 182034Z 18011KT 32/12 A2965 RMK A01 T03190120  RH  030%=      5-min Rain = 0
KRO1 182035Z 19016KT 32/12 A2965 RMK A01 T03200118  RH  029%=      5-min Rain = 0
KRO1 182036Z 19014G20KT 32/12 A2965 RMK A01 T03190118  RH  029%=      5-min Rain = 0
KRO1 182037Z 18015KT 32/12 A2965 RMK A01 T03190119  RH  029%=      5-min Rain = 0
KRO1 182038Z 19017KT 32/12 A2965 RMK A01 T03180119  RH  029%=      5-min Rain = 0
KRO1 182039Z 17013KT 32/12 A2965 RMK A01 T03160117  RH  030%=      5-min Rain = 0
KRO1 182040Z 19011KT 32/12 A2965 RMK A01 T03160119  RH  030%=      5-min Rain = 0
KRO1 182041Z 18009KT 32/12 A2965 RMK A01 T03160118  RH  030%=      5-min Rain = 0
KRO1 182042Z 18010KT 32/12 A2965 RMK A01 T03160119  RH  030%=      5-min Rain = 0
KRO1 182043Z 17010KT 32/12 A2965 RMK A01 T03170118  RH  030%=      5-min Rain = 0
KRO1 182044Z 17013KT 32/12 A2964 RMK A01 T03180118  RH  029%=      5-min Rain = 0
KRO1 182045Z 18014G20KT 32/12 A2964 RMK A01 T03190118  RH  029%=      5-min Rain = 0
KRO1 182046Z 18015KT 32/12 A2964 RMK A01 T03190120  RH  030%=      5-min Rain = 0
KRO1 182047Z 18012KT 32/12 A2964 RMK A01 T03180119  RH  030%=      5-min Rain = 0
KRO1 182048Z 20016KT 32/12 A2964 RMK A01 T03180120  RH  030%=      5-min Rain = 0
KRO1 182049Z 21013KT 32/12 A2964 RMK A01 T03190121  RH  030%=      5-min Rain = 0
KRO1 182050Z 20013KT 32/12 A2964 RMK A01 T03190121  RH  030%=      5-min Rain = 0
KRO1 182051Z 21013KT 32/12 A2964 RMK A01 T03190121  RH  030%=      5-min Rain = 0
KRO1 182052Z 21008KT 32/12 A2964 RMK A01 T03170120  RH  030%=      5-min Rain = 0
KRO1 182053Z 19011KT 32/12 A2964 RMK A01 T03160121  RH  030%=      5-min Rain = 0
KRO1 182054Z 20013KT 32/12 A2964 RMK A01 T03170122  RH  030%=      5-min Rain = 0
KRO1 182055Z 21015G20KT 32/12 A2964 RMK A01 T03170122  RH  030%=      5-min Rain = 0
KRO1 182056Z 21014KT 32/12 A2964 RMK A01 T03180123  RH  030%=      5-min Rain = 0
KRO1 182057Z 22016KT 32/12 A2964 RMK A01 T03180123  RH  030%=      5-min Rain = 0
KRO1 182058Z 20014KT 32/12 A2964 RMK A01 T03170124  RH  031%=      5-min Rain = 0
KRO1 182059Z 19012KT 32/12 A2964 RMK A01 T03170122  RH  030%=      5-min Rain = 0
KRO1 182100Z 20011KT 32/12 A2964 RMK A01 T03170123  RH  031%=      5-min Rain = 0
KRO1 182101Z 20012KT 32/12 A2964 RMK A01 T03170123  RH  031%=      5-min Rain = 0
KRO1 182102Z 22013KT 32/12 A2964 RMK A01 T03170123  RH  030%=      5-min Rain = 0
KRO1 182103Z 22013KT 32/12 A2964 RMK A01 T03170122  RH  030%=      5-min Rain = 0
KRO1 182104Z 22012KT 32/12 A2964 RMK A01 T03170123  RH  030%=      5-min Rain = 0
KRO1 182105Z 20014KT 32/12 A2964 RMK A01 T03180122  RH  030%=      5-min Rain = 0
KRO1 182106Z 21012KT 32/12 A2964 RMK A01 T03190122  RH  030%=      5-min Rain = 0
KRO1 182107Z 21011KT 32/12 A2964 RMK A01 T03200122  RH  030%=      5-min Rain = 0
KRO1 182108Z 20012KT 32/12 A2964 RMK A01 T03210122  RH  030%=      5-min Rain = 0
KRO1 182109Z 20012KT 32/12 A2964 RMK A01 T03210121  RH  030%=      5-min Rain = 0
KRO1 182110Z 19012KT 32/12 A2964 RMK A01 T03210122  RH  030%=      5-min Rain = 0
KRO1 182111Z 18012KT 32/12 A2964 RMK A01 T03210121  RH  029%=      5-min Rain = 0
KRO1 182112Z 19010KT 32/12 A2964 RMK A01 T03210121  RH  030%=      5-min Rain = 0
KRO1 182113Z 19008KT 32/12 A2964 RMK A01 T03190120  RH  030%=      5-min Rain = 0
KRO1 182114Z 18010KT 32/12 A2964 RMK A01 T03180121  RH  030%=      5-min Rain = 0
KRO1 182115Z 19016KT 32/12 A2964 RMK A01 T03180121  RH  030%=      5-min Rain = 0
KRO1 182116Z 18011G16KT 32/12 A2964 RMK A01 T03180121  RH  030%=      5-min Rain = 0
KRO1 182117Z 18009KT 32/12 A2964 RMK A01 T03190122  RH  030%=      5-min Rain = 0
KRO1 182118Z 18013KT 32/12 A2964 RMK A01 T03200121  RH  030%=      5-min Rain = 0
KRO1 182119Z 18011KT 32/12 A2964 RMK A01 T03190122  RH  030%=      5-min Rain = 0
KRO1 182120Z 18009KT 32/12 A2964 RMK A01 T03200122  RH  030%=      5-min Rain = 0
KRO1 182121Z 21007KT 32/12 A2964 RMK A01 T03200121  RH  030%=      5-min Rain = 0
KRO1 182122Z 23011KT 32/12 A2963 RMK A01 T03200122  RH  030%=      5-min Rain = 0
KRO1 182123Z 22010KT 32/12 A2964 RMK A01 T03190121  RH  030%=      5-min Rain = 0
KRO1 182124Z 21014G19KT 32/12 A2964 RMK A01 T03180122  RH  030%=      5-min Rain = 0
KRO1 182125Z 21017KT 32/12 A2964 RMK A01 T03180122  RH  030%=      5-min Rain = 0
KRO1 182126Z 23015KT 32/12 A2964 RMK A01 T03170120  RH  030%=      5-min Rain = 0
KRO1 182127Z 22014KT 31/12 A2964 RMK A01 T03140120  RH  031%=      5-min Rain = 0
KRO1 182128Z 22012KT 31/12 A2964 RMK A01 T03130121  RH  031%=      5-min Rain = 0
KRO1 182129Z 21010KT 32/12 A2964 RMK A01 T03150122  RH  031%=      5-min Rain = 0
KRO1 182130Z 19011KT 32/12 A2964 RMK A01 T03160123  RH  031%=      5-min Rain = 0
KRO1 182131Z 19014G20KT 32/12 A2963 RMK A01 T03180121  RH  030%=      5-min Rain = 0
KRO1 182132Z 19016KT 32/12 A2963 RMK A01 T03180121  RH  030%=      5-min Rain = 0
KRO1 182133Z 19014G19KT 32/12 A2963 RMK A01 T03180121  RH  030%=      5-min Rain = 0
KRO1 182134Z 19016KT 32/12 A2963 RMK A01 T03180120  RH  030%=      5-min Rain = 0
KRO1 182135Z 20013G19KT 32/12 A2963 RMK A01 T03180121  RH  030%=      5-min Rain = 0
KRO1 182136Z 20012KT 32/12 A2963 RMK A01 T03180120  RH  030%=      5-min Rain = 0
KRO1 182137Z 19014KT 32/12 A2963 RMK A01 T03170121  RH  030%=      5-min Rain = 0
KRO1 182138Z 21014KT 32/12 A2963 RMK A01 T03170121  RH  030%=      5-min Rain = 0
KRO1 182139Z 20012KT 32/12 A2963 RMK A01 T03170120  RH  030%=      5-min Rain = 0
KRO1 182140Z 19014KT 32/12 A2963 RMK A01 T03170120  RH  030%=      5-min Rain = 0
KRO1 182141Z 21013KT 32/12 A2963 RMK A01 T03170121  RH  030%=      5-min Rain = 0
KRO1 182142Z 19010KT 32/12 A2963 RMK A01 T03180121  RH  030%=      5-min Rain = 0
KRO1 182143Z 21011KT 32/12 A2963 RMK A01 T03200121  RH  030%=      5-min Rain = 0
KRO1 182144Z 19012KT 32/12 A2963 RMK A01 T03200122  RH  030%=      5-min Rain = 0
KRO1 182145Z 19015G20KT 32/12 A2963 RMK A01 T03190122  RH  030%=      5-min Rain = 0
KRO1 182146Z 19014KT 32/12 A2963 RMK A01 T03190121  RH  030%=      5-min Rain = 0
KRO1 182147Z 18015KT 32/12 A2963 RMK A01 T03190122  RH  030%=      5-min Rain = 0
KRO1 182148Z 19014KT 32/12 A2963 RMK A01 T03190121  RH  030%=      5-min Rain = 0
KRO1 182149Z 19010KT 32/12 A2963 RMK A01 T03180121  RH  030%=      5-min Rain = 0
KRO1 182150Z 19011KT 32/12 A2963 RMK A01 T03160120  RH  030%=      5-min Rain = 0
KRO1 182151Z 19009KT 31/12 A2963 RMK A01 T03140119  RH  030%=      5-min Rain = 0
KRO1 182152Z 19009KT 31/12 A2963 RMK A01 T03120119  RH  031%=      5-min Rain = 0
KRO1 182153Z 18010KT 31/12 A2963 RMK A01 T03120120  RH  031%=      5-min Rain = 0
KRO1 182154Z 19011KT 31/12 A2963 RMK A01 T03140121  RH  031%=      5-min Rain = 0
KRO1 182155Z 19013G18KT 32/12 A2963 RMK A01 T03170123  RH  030%=      5-min Rain = 0
KRO1 182156Z 18014KT 32/12 A2963 RMK A01 T03190121  RH  030%=      5-min Rain = 0
KRO1 182157Z 18014KT 32/12 A2963 RMK A01 T03170121  RH  030%=      5-min Rain = 0
KRO1 182158Z 19013KT 32/12 A2963 RMK A01 T03160120  RH  030%=      5-min Rain = 0
KRO1 182159Z 19011KT 32/12 A2963 RMK A01 T03150120  RH  030%=      5-min Rain = 0
KRO1 182200Z 18011KT 32/12 A2963 RMK A01 T03150120  RH  030%=      5-min Rain = 0
KRO1 182201Z 17014KT 32/12 A2963 RMK A01 T03150121  RH  030%=      5-min Rain = 0
KRO1 182202Z 17011KT 32/12 A2963 RMK A01 T03160119  RH  030%=      5-min Rain = 0
KRO1 182203Z 17015KT 32/12 A2963 RMK A01 T03170120  RH  030%=      5-min Rain = 0
KRO1 182204Z 19013KT 32/12 A2963 RMK A01 T03180120  RH  030%=      5-min Rain = 0
KRO1 182205Z 19010KT 32/12 A2963 RMK A01 T03180121  RH  030%=      5-min Rain = 0
KRO1 182206Z 19008KT 32/12 A2963 RMK A01 T03190123  RH  030%=      5-min Rain = 0
KRO1 182207Z 18013KT 32/12 A2963 RMK A01 T03210122  RH  030%=      5-min Rain = 0
KRO1 182208Z 17013KT 32/12 A2963 RMK A01 T03210121  RH  029%=      5-min Rain = 0
KRO1 182209Z 18011KT 32/12 A2963 RMK A01 T03190120  RH  030%=      5-min Rain = 0
KRO1 182210Z 19011KT 32/12 A2963 RMK A01 T03180121  RH  030%=      5-min Rain = 0
KRO1 182211Z 19013KT 32/12 A2963 RMK A01 T03180121  RH  030%=      5-min Rain = 0
KRO1 182212Z 18014KT 32/12 A2963 RMK A01 T03170121  RH  030%=      5-min Rain = 0
KRO1 182213Z 18012KT 32/12 A2963 RMK A01 T03160121  RH  030%=      5-min Rain = 0
KRO1 182214Z 18011KT 32/12 A2963 RMK A01 T03160121  RH  030%=      5-min Rain = 0
KRO1 182215Z 18012KT 32/12 A2963 RMK A01 T03170120  RH  030%=      5-min Rain = 0
KRO1 182216Z 20011G16KT 32/12 A2963 RMK A01 T03170121  RH  030%=      5-min Rain = 0
KRO1 182217Z 20011KT 32/12 A2963 RMK A01 T03170121  RH  030%=      5-min Rain = 0
KRO1 182218Z 20011KT 32/12 A2963 RMK A01 T03160121  RH  030%=      5-min Rain = 0
KRO1 182219Z 19010KT 32/12 A2963 RMK A01 T03150121  RH  030%=      5-min Rain = 0
KRO1 182220Z 19008KT 31/12 A2963 RMK A01 T03130120  RH  031%=      5-min Rain = 0
KRO1 182221Z 19010KT 31/12 A2963 RMK A01 T03120121  RH  031%=      5-min Rain = 0
KRO1 182222Z 18009G14KT 31/12 A2963 RMK A01 T03140121  RH  031%=      5-min Rain = 0
KRO1 182223Z 18014G19KT 32/12 A2963 RMK A01 T03150121  RH  030%=      5-min Rain = 0
KRO1 182224Z 18017KT 32/12 A2963 RMK A01 T03160120  RH  030%=      5-min Rain = 0
KRO1 182225Z 19017KT 31/12 A2963 RMK A01 T03130120  RH  031%=      5-min Rain = 0
KRO1 182226Z 18013G18KT 31/12 A2963 RMK A01 T03130121  RH  031%=      5-min Rain = 0
KRO1 182227Z 18013KT 31/12 A2963 RMK A01 T03130121  RH  031%=      5-min Rain = 0
KRO1 182228Z 17012KT 32/12 A2963 RMK A01 T03150120  RH  030%=      5-min Rain = 0
KRO1 182229Z 17012KT 32/12 A2963 RMK A01 T03150119  RH  030%=      5-min Rain = 0
KRO1 182230Z 18011KT 31/12 A2963 RMK A01 T03130120  RH  031%=      5-min Rain = 0
KRO1 182231Z 18012KT 31/12 A2963 RMK A01 T03100120  RH  031%=      5-min Rain = 0
KRO1 182232Z 18010KT 31/12 A2962 RMK A01 T03090120  RH  031%=      5-min Rain = 0
KRO1 182233Z 18012KT 31/12 A2962 RMK A01 T03100121  RH  031%=      5-min Rain = 0
KRO1 182234Z 18011KT 31/12 A2962 RMK A01 T03120122  RH  031%=      5-min Rain = 0
KRO1 182235Z 17010KT 31/12 A2962 RMK A01 T03130122  RH  031%=      5-min Rain = 0
KRO1 182236Z 17013KT 31/12 A2962 RMK A01 T03140122  RH  031%=      5-min Rain = 0
KRO1 182237Z 17013KT 31/12 A2962 RMK A01 T03140122  RH  031%=      5-min Rain = 0
KRO1 182238Z 18014KT 31/12 A2962 RMK A01 T03140121  RH  031%=      5-min Rain = 0
KRO1 182239Z 19013KT 31/12 A2962 RMK A01 T03140122  RH  031%=      5-min Rain = 0
KRO1 182240Z 19012KT 31/12 A2962 RMK A01 T03140122  RH  031%=      5-min Rain = 0
KRO1 182241Z 19010KT 31/12 A2962 RMK A01 T03140122  RH  031%=      5-min Rain = 0
KRO1 182242Z 19014KT 31/12 A2962 RMK A01 T03140123  RH  031%=      5-min Rain = 0
KRO1 182243Z 18015KT 31/12 A2962 RMK A01 T03140122  RH  031%=      5-min Rain = 0
KRO1 182244Z 17012KT 31/12 A2962 RMK A01 T03130123  RH  031%=      5-min Rain = 0
KRO1 182245Z 18011KT 31/12 A2962 RMK A01 T03130124  RH  031%=      5-min Rain = 0
KRO1 182246Z 17013KT 31/12 A2962 RMK A01 T03120123  RH  031%=      5-min Rain = 0
KRO1 182247Z 17011KT 31/12 A2962 RMK A01 T03110122  RH  031%=      5-min Rain = 0
KRO1 182248Z 17012KT 31/12 A2962 RMK A01 T03090122  RH  032%=      5-min Rain = 0
KRO1 182249Z 17010KT 31/12 A2962 RMK A01 T03080121  RH  032%=      5-min Rain = 0
KRO1 182250Z 18007KT 31/12 A2962 RMK A01 T03060121  RH  032%=      5-min Rain = 0
KRO1 182251Z 19009KT 31/12 A2962 RMK A01 T03050122  RH  033%=      5-min Rain = 0
KRO1 182252Z 18016KT 30/12 A2962 RMK A01 T03040123  RH  033%=      5-min Rain = 0
KRO1 182253Z 19013G18KT 30/12 A2962 RMK A01 T03030122  RH  033%=      5-min Rain = 0
KRO1 182254Z 19011KT 30/12 A2962 RMK A01 T03030122  RH  033%=      5-min Rain = 0
KRO1 182255Z 19012KT 30/12 A2962 RMK A01 T03030122  RH  033%=      5-min Rain = 0
KRO1 182256Z 18014KT 30/12 A2962 RMK A01 T03020122  RH  033%=      5-min Rain = 0
KRO1 182257Z 19012KT 30/12 A2962 RMK A01 T03020122  RH  033%=      5-min Rain = 0
KRO1 182258Z 18014KT 30/12 A2962 RMK A01 T03030122  RH  033%=      5-min Rain = 0
KRO1 182259Z 18010KT 30/12 A2962 RMK A01 T03040123  RH  033%=      5-min Rain = 0
KRO1 182300Z 18011KT 31/12 A2962 RMK A01 T03050123  RH  033%=      5-min Rain = 0
KRO1 182301Z 18012KT 31/12 A2962 RMK A01 T03060123  RH  033%=      5-min Rain = 0
KRO1 182302Z 18012KT 31/12 A2962 RMK A01 T03050123  RH  033%=      5-min Rain = 0
KRO1 182303Z 17013G18KT 30/12 A2962 RMK A01 T03040123  RH  033%=      5-min Rain = 0
KRO1 182304Z 17016KT 30/12 A2962 RMK A01 T03030122  RH  033%=      5-min Rain = 0
KRO1 182305Z 18015KT 30/12 A2962 RMK A01 T03020123  RH  033%=      5-min Rain = 0
KRO1 182306Z 18016KT 30/12 A2962 RMK A01 T03020123  RH  033%=      5-min Rain = 0
KRO1 182307Z 18016KT 30/12 A2962 RMK A01 T03010123  RH  033%=      5-min Rain = 0
KRO1 182308Z 17014KT 30/12 A2962 RMK A01 T03010123  RH  034%=      5-min Rain = 0
KRO1 182309Z 18015KT 30/12 A2962 RMK A01 T03010124  RH  034%=      5-min Rain = 0
KRO1 182310Z 18016KT 30/12 A2962 RMK A01 T03010124  RH  034%=      5-min Rain = 0
KRO1 182311Z 18014KT 30/12 A2962 RMK A01 T03010124  RH  034%=      5-min Rain = 0
KRO1 182312Z 17014KT 30/12 A2962 RMK A01 T03010124  RH  034%=      5-min Rain = 0
KRO1 182313Z 18014KT 30/12 A2962 RMK A01 T03010124  RH  034%=      5-min Rain = 0
KRO1 182314Z 17014KT 30/12 A2962 RMK A01 T03010124  RH  034%=      5-min Rain = 0
KRO1 182315Z 17012KT 30/12 A2962 RMK A01 T03010124  RH  034%=      5-min Rain = 0
KRO1 182316Z 17010KT 30/12 A2962 RMK A01 T03020124  RH  034%=      5-min Rain = 0
KRO1 182317Z 16012KT 30/13 A2962 RMK A01 T03020125  RH  034%=      5-min Rain = 0
KRO1 182318Z 16011KT 30/13 A2962 RMK A01 T03020125  RH  034%=      5-min Rain = 0
KRO1 182319Z 16014KT 30/12 A2962 RMK A01 T03010124  RH  034%=      5-min Rain = 0
KRO1 182320Z 16014KT 30/12 A2962 RMK A01 T03010124  RH  034%=      5-min Rain = 0
KRO1 182321Z 16015KT 30/13 A2962 RMK A01 T03000125  RH  034%=      5-min Rain = 0
KRO1 182322Z 16015KT 30/13 A2962 RMK A01 T03000125  RH  034%=      5-min Rain = 0
KRO1 182323Z 16012KT 30/13 A2962 RMK A01 T03000125  RH  034%=      5-min Rain = 0
KRO1 182324Z 15012G17KT 30/13 A2962 RMK A01 T02990125  RH  034%=      5-min Rain = 0
KRO1 182325Z 15011KT 30/13 A2962 RMK A01 T02990125  RH  034%=      5-min Rain = 0
KRO1 182326Z 15014KT 30/13 A2962 RMK A01 T02980125  RH  035%=      5-min Rain = 0
KRO1 182327Z 15012KT 30/13 A2962 RMK A01 T02970125  RH  035%=      5-min Rain = 0
KRO1 182328Z 16012KT 30/13 A2962 RMK A01 T02970125  RH  035%=      5-min Rain = 0
KRO1 182329Z 16015KT 30/13 A2962 RMK A01 T02970125  RH  035%=      5-min Rain = 0
KRO1 182330Z 16016KT 30/13 A2962 RMK A01 T02960125  RH  035%=      5-min Rain = 0
KRO1 182331Z 17013KT 30/13 A2962 RMK A01 T02960126  RH  035%=      5-min Rain = 0
KRO1 182332Z 17011KT 30/13 A2962 RMK A01 T02950126  RH  035%=      5-min Rain = 0
KRO1 182333Z 16011KT 29/13 A2962 RMK A01 T02940126  RH  036%=      5-min Rain = 0
KRO1 182334Z 16012KT 29/13 A2962 RMK A01 T02930126  RH  036%=      5-min Rain = 0
KRO1 182335Z 16011KT 29/13 A2962 RMK A01 T02920126  RH  036%=      5-min Rain = 0
KRO1 182336Z 17012KT 29/13 A2962 RMK A01 T02920126  RH  036%=      5-min Rain = 0
KRO1 182337Z 16012KT 29/13 A2962 RMK A01 T02910126  RH  036%=      5-min Rain = 0
KRO1 182338Z 16011KT 29/13 A2962 RMK A01 T02910126  RH  036%=      5-min Rain = 0
KRO1 182339Z 15010KT 29/13 A2962 RMK A01 T02910126  RH  036%=      5-min Rain = 0
KRO1 182340Z 15013KT 29/13 A2962 RMK A01 T02900125  RH  036%=      5-min Rain = 0
KRO1 182341Z 15010KT 29/13 A2962 RMK A01 T02910126  RH  036%=      5-min Rain = 0
KRO1 182342Z 15010KT 29/13 A2962 RMK A01 T02910125  RH  036%=      5-min Rain = 0
KRO1 182343Z 15013KT 29/13 A2962 RMK A01 T02900125  RH  036%=      5-min Rain = 0
KRO1 182344Z 16012KT 29/13 A2962 RMK A01 T02900126  RH  036%=      5-min Rain = 0
KRO1 182345Z 16012KT 29/13 A2962 RMK A01 T02900125  RH  036%=      5-min Rain = 0
KRO1 182346Z 16014KT 29/13 A2962 RMK A01 T02900126  RH  036%=      5-min Rain = 0
KRO1 182347Z 15012KT 29/13 A2962 RMK A01 T02900125  RH  036%=      5-min Rain = 0
KRO1 182348Z 15012KT 29/13 A2962 RMK A01 T02910126  RH  036%=      5-min Rain = 0
KRO1 182349Z 16012KT 29/13 A2962 RMK A01 T02900126  RH  036%=      5-min Rain = 0
KRO1 182350Z 15011KT 29/13 A2962 RMK A01 T02900125  RH  036%=      5-min Rain = 0
KRO1 182351Z 16010KT 29/13 A2962 RMK A01 T02900126  RH  036%=      5-min Rain = 0
KRO1 182352Z 15010KT 29/13 A2962 RMK A01 T02890126  RH  036%=      5-min Rain = 0
KRO1 182353Z 15010KT 29/13 A2962 RMK A01 T02890126  RH  037%=      5-min Rain = 0
KRO1 182354Z 15013G18KT 29/13 A2962 RMK A01 T02880125  RH  037%=      5-min Rain = 0
KRO1 182355Z 15013KT 29/13 A2962 RMK A01 T02870125  RH  037%=      5-min Rain = 0
KRO1 182356Z 15011KT 29/13 A2962 RMK A01 T02870125  RH  037%=      5-min Rain = 0
KRO1 182357Z 15010KT 29/13 A2962 RMK A01 T02870126  RH  037%=      5-min Rain = 0
KRO1 182358Z 15010KT 29/13 A2962 RMK A01 T02870125  RH  037%=      5-min Rain = 0
KRO1 182359Z 15012KT 29/13 A2962 RMK A01 T02860125  RH  037%=      5-min Rain = 0
KRO1 190000Z 15011KT 29/13 A2962 RMK A01 T02860125  RH  037%=      5-min Rain = 0
KRO1 190001Z 15011KT 29/13 A2962 RMK A01 T02860125  RH  037%=      5-min Rain = 0
KRO1 190002Z 15011KT 29/13 A2962 RMK A01 T02860126  RH  037%=      5-min Rain = 0
KRO1 190003Z 15010KT 29/13 A2962 RMK A01 T02850125  RH  037%=      5-min Rain = 0
KRO1 190004Z 15010KT 29/13 A2962 RMK A01 T02850125  RH  037%=      5-min Rain = 0
KRO1 190005Z 15010KT 29/13 A2962 RMK A01 T02850126  RH  037%=      5-min Rain = 0
KRO1 190006Z 15011KT 29/13 A2962 RMK A01 T02850126  RH  037%=      5-min Rain = 0
KRO1 190007Z 15013KT 29/13 A2962 RMK A01 T02850126  RH  037%=      5-min Rain = 0
KRO1 190008Z 15013KT 28/13 A2962 RMK A01 T02840125  RH  037%=      5-min Rain = 0
KRO1 190009Z 15010KT 28/13 A2962 RMK A01 T02840126  RH  037%=      5-min Rain = 0
KRO1 190010Z 16010KT 28/13 A2962 RMK A01 T02840125  RH  037%=      5-min Rain = 0
KRO1 190011Z 15009KT 28/13 A2962 RMK A01 T02840125  RH  038%=      5-min Rain = 0
KRO1 190012Z 15013KT 28/13 A2962 RMK A01 T02830125  RH  038%=      5-min Rain = 0
KRO1 190013Z 15014KT 28/13 A2962 RMK A01 T02830125  RH  038%=      5-min Rain = 0
KRO1 190014Z 15014KT 28/13 A2962 RMK A01 T02820125  RH  038%=      5-min Rain = 0
KRO1 190015Z 15013KT 28/13 A2962 RMK A01 T02820126  RH  038%=      5-min Rain = 0
KRO1 190016Z 15013KT 28/13 A2962 RMK A01 T02820125  RH  038%=      5-min Rain = 0
KRO1 190017Z 15012KT 28/13 A2962 RMK A01 T02820126  RH  038%=      5-min Rain = 0
KRO1 190018Z 15011KT 28/13 A2962 RMK A01 T02820126  RH  038%=      5-min Rain = 0
KRO1 190019Z 15011KT 28/13 A2962 RMK A01 T02810126  RH  038%=      5-min Rain = 0
KRO1 190020Z 15013KT 28/13 A2962 RMK A01 T02800125  RH  038%=      5-min Rain = 0
KRO1 190021Z 15012KT 28/13 A2962 RMK A01 T02800125  RH  038%=      5-min Rain = 0
KRO1 190022Z 15015KT 28/13 A2962 RMK A01 T02790125  RH  039%=      5-min Rain = 0
KRO1 190023Z 15015KT 28/13 A2962 RMK A01 T02790126  RH  039%=      5-min Rain = 0
KRO1 190024Z 15013KT 28/13 A2962 RMK A01 T02790126  RH  039%=      5-min Rain = 0
KRO1 190025Z 15013G18KT 28/13 A2962 RMK A01 T02790126  RH  039%=      5-min Rain = 0
KRO1 190026Z 15014G19KT 28/13 A2962 RMK A01 T02790126  RH  039%=      5-min Rain = 0
KRO1 190027Z 15013KT 28/13 A2962 RMK A01 T02790126  RH  039%=      5-min Rain = 0
KRO1 190028Z 15011KT 28/13 A2962 RMK A01 T02790126  RH  039%=      5-min Rain = 0
KRO1 190029Z 15013KT 28/13 A2962 RMK A01 T02780126  RH  039%=      5-min Rain = 0
KRO1 190030Z 15014KT 28/13 A2962 RMK A01 T02780126  RH  039%=      5-min Rain = 0
KRO1 190031Z 16012KT 28/13 A2962 RMK A01 T02780126  RH  039%=      5-min Rain = 0
KRO1 190032Z 16012KT 28/13 A2962 RMK A01 T02790126  RH  039%=      5-min Rain = 0
KRO1 190033Z 16012KT 28/13 A2962 RMK A01 T02780126  RH  039%=      5-min Rain = 0
KRO1 190034Z 16012KT 28/13 A2962 RMK A01 T02780126  RH  039%=      5-min Rain = 0
KRO1 190035Z 16012KT 28/13 A2963 RMK A01 T02780126  RH  039%=      5-min Rain = 0
KRO1 190036Z 16010KT 28/13 A2963 RMK A01 T02780126  RH  039%=      5-min Rain = 0
KRO1 190037Z 16010KT 28/13 A2963 RMK A01 T02770126  RH  039%=      5-min Rain = 0
KRO1 190038Z 16009KT 28/13 A2963 RMK A01 T02760126  RH  039%=      5-min Rain = 0
KRO1 190039Z 16008KT 28/13 A2963 RMK A01 T02750126  RH  040%=      5-min Rain = 0
KRO1 190040Z 17009KT 27/13 A2963 RMK A01 T02740126  RH  040%=      5-min Rain = 0
KRO1 190041Z 17008KT 27/13 A2963 RMK A01 T02740126  RH  040%=      5-min Rain = 0
KRO1 190042Z 17010KT 27/13 A2963 RMK A01 T02740126  RH  040%=      5-min Rain = 0
KRO1 190043Z 17010KT 27/13 A2963 RMK A01 T02730126  RH  040%=      5-min Rain = 0
KRO1 190044Z 17010KT 27/13 A2963 RMK A01 T02730126  RH  040%=      5-min Rain = 0
KRO1 190045Z 18010KT 27/13 A2963 RMK A01 T02730126  RH  040%=      5-min Rain = 0
KRO1 190046Z 17008KT 27/13 A2963 RMK A01 T02720126  RH  040%=      5-min Rain = 0
KRO1 190047Z 17009KT 27/13 A2963 RMK A01 T02710126  RH  041%=      5-min Rain = 0
KRO1 190048Z 17010KT 27/13 A2964 RMK A01 T02710126  RH  041%=      5-min Rain = 0
KRO1 190049Z 18009KT 27/13 A2964 RMK A01 T02710127  RH  041%=      5-min Rain = 0
KRO1 190050Z 18008KT 27/13 A2964 RMK A01 T02700127  RH  041%=      5-min Rain = 0
KRO1 190051Z 18008KT 27/13 A2964 RMK A01 T02700127  RH  041%=      5-min Rain = 0
KRO1 190052Z 18008KT 27/13 A2964 RMK A01 T02700127  RH  041%=      5-min Rain = 0
KRO1 190053Z 17008KT 27/13 A2963 RMK A01 T02700127  RH  041%=      5-min Rain = 0
KRO1 190054Z 17009KT 27/13 A2963 RMK A01 T02700127  RH  041%=      5-min Rain = 0
KRO1 190055Z 16009KT 27/13 A2963 RMK A01 T02700127  RH  041%=      5-min Rain = 0
KRO1 190056Z 17008KT 27/13 A2963 RMK A01 T02690127  RH  041%=      5-min Rain = 0
KRO1 190057Z 18009KT 27/13 A2963 RMK A01 T02700127  RH  041%=      5-min Rain = 0
KRO1 190058Z 18009KT 27/13 A2963 RMK A01 T02690127  RH  041%=      5-min Rain = 0
KRO1 190059Z 18009KT 27/13 A2964 RMK A01 T02700127  RH  041%=      5-min Rain = 0
KRO1 190100Z 18008KT 27/13 A2964 RMK A01 T02690127  RH  041%=      5-min Rain = 0
KRO1 190101Z 17008KT 27/13 A2964 RMK A01 T02690127  RH  041%=      5-min Rain = 0
KRO1 190102Z 17010KT 27/13 A2964 RMK A01 T02680127  RH  042%=      5-min Rain = 0
KRO1 190103Z 17011G17KT 27/13 A2964 RMK A01 T02690127  RH  041%=      5-min Rain = 0
KRO1 190104Z 17013KT 27/13 A2964 RMK A01 T02700128  RH  041%=      5-min Rain = 0
KRO1 190105Z 17013KT 27/13 A2964 RMK A01 T02720128  RH  041%=      5-min Rain = 0
KRO1 190106Z 17013KT 27/13 A2964 RMK A01 T02730128  RH  041%=      5-min Rain = 0
KRO1 190107Z 17014KT 27/13 A2964 RMK A01 T02730128  RH  041%=      5-min Rain = 0
KRO1 190108Z 17014KT 27/13 A2964 RMK A01 T02730128  RH  041%=      5-min Rain = 0
KRO1 190109Z 16012KT 27/13 A2964 RMK A01 T02730128  RH  041%=      5-min Rain = 0
KRO1 190110Z 16012KT 27/13 A2964 RMK A01 T02730128  RH  041%=      5-min Rain = 0
KRO1 190111Z 16013KT 27/13 A2964 RMK A01 T02720128  RH  041%=      5-min Rain = 0
KRO1 190112Z 17012KT 27/13 A2964 RMK A01 T02710128  RH  041%=      5-min Rain = 0
KRO1 190113Z 17012KT 27/13 A2964 RMK A01 T02710128  RH  041%=      5-min Rain = 0
KRO1 190114Z 17011KT 27/13 A2964 RMK A01 T02720128  RH  041%=      5-min Rain = 0
KRO1 190115Z 17010KT 27/13 A2964 RMK A01 T02720128  RH  041%=      5-min Rain = 0
KRO1 190116Z 17009KT 27/13 A2964 RMK A01 T02710128  RH  041%=      5-min Rain = 0
KRO1 190117Z 17008KT 27/13 A2964 RMK A01 T02700127  RH  041%=      5-min Rain = 0
KRO1 190118Z 18009KT 27/13 A2964 RMK A01 T02690128  RH  042%=      5-min Rain = 0
KRO1 190119Z 18010KT 27/13 A2964 RMK A01 T02680128  RH  042%=      5-min Rain = 0
KRO1 190120Z 18009KT 27/13 A2964 RMK A01 T02670127  RH  042%=      5-min Rain = 0
KRO1 190121Z 17009KT 27/13 A2964 RMK A01 T02660128  RH  042%=      5-min Rain = 0
KRO1 190122Z 17010KT 27/13 A2964 RMK A01 T02660128  RH  042%=      5-min Rain = 0
KRO1 190123Z 17011KT 27/13 A2964 RMK A01 T02670128  RH  042%=      5-min Rain = 0
KRO1 190124Z 17010KT 27/13 A2964 RMK A01 T02670127  RH  042%=      5-min Rain = 0
KRO1 190125Z 17011KT 27/13 A2964 RMK A01 T02670128  RH  042%=      5-min Rain = 0
KRO1 190126Z 17011KT 27/13 A2964 RMK A01 T02670128  RH  042%=      5-min Rain = 0
KRO1 190127Z 17011KT 27/13 A2964 RMK A01 T02670128  RH  042%=      5-min Rain = 0
KRO1 190128Z 17011KT 27/13 A2964 RMK A01 T02670128  RH  042%=      5-min Rain = 0
KRO1 190129Z 17011KT 27/13 A2964 RMK A01 T02670128  RH  042%=      5-min Rain = 0
KRO1 190130Z 17010KT 27/13 A2965 RMK A01 T02670128  RH  042%=      5-min Rain = 0
KRO1 190131Z 17010KT 27/13 A2965 RMK A01 T02670128  RH  042%=      5-min Rain = 0
KRO1 190132Z 17009KT 27/13 A2965 RMK A01 T02670128  RH  042%=      5-min Rain = 0
KRO1 190133Z 17009KT 27/13 A2965 RMK A01 T02660128  RH  042%=      5-min Rain = 0
KRO1 190134Z 17008KT 27/13 A2965 RMK A01 T02650128  RH  043%=      5-min Rain = 0
KRO1 190135Z 17009KT 27/13 A2965 RMK A01 T02650128  RH  043%=      5-min Rain = 0
KRO1 190136Z 17009KT 27/13 A2965 RMK A01 T02650128  RH  043%=      5-min Rain = 0
KRO1 190137Z 17008KT 27/13 A2965 RMK A01 T02660128  RH  043%=      5-min Rain = 0
KRO1 190138Z 17009KT 27/13 A2965 RMK A01 T02650128  RH  043%=      5-min Rain = 0
KRO1 190139Z 17009KT 27/13 A2965 RMK A01 T02650128  RH  043%=      5-min Rain = 0
KRO1 190140Z 17008KT 27/13 A2965 RMK A01 T02660129  RH  043%=      5-min Rain = 0
KRO1 190141Z 17009KT 27/13 A2965 RMK A01 T02660128  RH  043%=      5-min Rain = 0
KRO1 190142Z 18008KT 27/13 A2965 RMK A01 T02660128  RH  043%=      5-min Rain = 0
KRO1 190143Z 18009KT 27/13 A2965 RMK A01 T02660129  RH  043%=      5-min Rain = 0
KRO1 190144Z 18009KT 27/13 A2965 RMK A01 T02650129  RH  043%=      5-min Rain = 0
KRO1 190145Z 19009KT 27/13 A2966 RMK A01 T02650129  RH  043%=      5-min Rain = 0
KRO1 190146Z 19008KT 27/13 A2966 RMK A01 T02650129  RH  043%=      5-min Rain = 0
KRO1 190147Z 20008KT 27/13 A2966 RMK A01 T02660130  RH  043%=      5-min Rain = 0
KRO1 190148Z 19008KT 27/13 A2967 RMK A01 T02660129  RH  043%=      5-min Rain = 0
KRO1 190149Z 18012G17KT 27/13 A2966 RMK A01 T02670130  RH  043%=      5-min Rain = 0
KRO1 190150Z 19013KT 27/13 A2966 RMK A01 T02680130  RH  043%=      5-min Rain = 0
KRO1 190151Z 21011KT 27/13 A2967 RMK A01 T02680130  RH  042%=      5-min Rain = 0
KRO1 190152Z 24010KT 27/13 A2967 RMK A01 T02690130  RH  042%=      5-min Rain = 0
KRO1 190153Z 27008KT 27/13 A2968 RMK A01 T02690130  RH  042%=      5-min Rain = 0
KRO1 190154Z 30013KT 27/13 A2968 RMK A01 T02700126  RH  041%=      5-min Rain = 0
KRO1 190155Z 30011KT 27/12 A2968 RMK A01 T02730124  RH  040%=      5-min Rain = 0
KRO1 190156Z 27011KT 28/13 A2968 RMK A01 T02760126  RH  039%=      5-min Rain = 0
KRO1 190157Z 25007KT 28/13 A2968 RMK A01 T02780127  RH  039%=      5-min Rain = 0
KRO1 190158Z 27012G19KT 28/13 A2968 RMK A01 T02780126  RH  039%=      5-min Rain = 0
KRO1 190159Z 25013KT 28/13 A2968 RMK A01 T02780126  RH  039%=      5-min Rain = 0
KRO1 190200Z 27006G12KT 28/13 A2968 RMK A01 T02790128  RH  039%=      5-min Rain = 0
KRO1 190201Z 24005KT 28/13 A2968 RMK A01 T02800129  RH  039%=      5-min Rain = 0
KRO1 190202Z 23004KT 28/13 A2968 RMK A01 T02800129  RH  039%=      5-min Rain = 0
KRO1 190203Z 23005KT 28/13 A2968 RMK A01 T02790128  RH  039%=      5-min Rain = 0
KRO1 190204Z 24005KT 28/13 A2968 RMK A01 T02780128  RH  040%=      5-min Rain = 0
KRO1 190205Z 24006KT 28/13 A2967 RMK A01 T02770126  RH  039%=      5-min Rain = 0
KRO1 190206Z 22005KT 28/13 A2968 RMK A01 T02760129  RH  040%=      5-min Rain = 0
KRO1 190207Z 22007KT 27/13 A2968 RMK A01 T02740127  RH  040%=      5-min Rain = 0
KRO1 190208Z 22007KT 27/13 A2967 RMK A01 T02730128  RH  041%=      5-min Rain = 0
KRO1 190209Z 23005KT 27/13 A2968 RMK A01 T02730129  RH  041%=      5-min Rain = 0
KRO1 190210Z 25005KT 27/13 A2967 RMK A01 T02720131  RH  042%=      5-min Rain = 0
KRO1 190211Z 25005KT 27/13 A2967 RMK A01 T02700130  RH  042%=      5-min Rain = 0
KRO1 190212Z 26004KT 27/13 A2967 RMK A01 T02690125  RH  041%=      5-min Rain = 0
KRO1 190213Z 24002KT 27/12 A2967 RMK A01 T02680115  RH  039%=      5-min Rain = 0
KRO1 190214Z 20004KT 27/12 A2967 RMK A01 T02680117  RH  039%=      5-min Rain = 0
KRO1 190215Z 19005KT 27/11 A2967 RMK A01 T02670112  RH  038%=      5-min Rain = 0
KRO1 190216Z 18005KT 27/11 A2967 RMK A01 T02670111  RH  038%=      5-min Rain = 0
KRO1 190217Z 17006KT 27/11 A2967 RMK A01 T02670111  RH  038%=      5-min Rain = 0
KRO1 190218Z 18006KT 27/12 A2967 RMK A01 T02670120  RH  040%=      5-min Rain = 0
KRO1 190219Z 17006KT 27/12 A2967 RMK A01 T02660119  RH  040%=      5-min Rain = 0
KRO1 190220Z 17008KT 27/12 A2967 RMK A01 T02650120  RH  041%=      5-min Rain = 0
KRO1 190221Z 16008KT 26/12 A2967 RMK A01 T02640124  RH  042%=      5-min Rain = 0
KRO1 190222Z 17009KT 27/13 A2967 RMK A01 T02650125  RH  042%=      5-min Rain = 0
KRO1 190223Z 17009KT 27/13 A2967 RMK A01 T02650126  RH  042%=      5-min Rain = 0
KRO1 190224Z 19011KT 26/13 A2968 RMK A01 T02640128  RH  043%=      5-min Rain = 0
KRO1 190225Z 20013KT 26/13 A2969 RMK A01 T02620129  RH  044%=      5-min Rain = 0
KRO1 190226Z 21016KT 26/13 A297 RMK A01 T02610130  RH  044%=      5-min Rain = 0
KRO1 190227Z 21017KT 26/13 A297 RMK A01 T02600130  RH  045%=      5-min Rain = 0
KRO1 190228Z 23020G29KT 26/12 A297 RMK A01 T02600119  RH  042%=      5-min Rain = 0
KRO1 190229Z 22022G32KT 26/11 A297 RMK A01 T02590110  RH  039%=      5-min Rain = 0
KRO1 190230Z 23019G27KT 26/10 A297 RMK A01 T02570104  RH  038%=      5-min Rain = 0
KRO1 190231Z 21014KT 26/11 A2969 RMK A01 T02560105  RH  039%=      5-min Rain = 0
KRO1 190232Z 21016KT 25/11 A2968 RMK A01 T02500105  RH  040%=      5-min Rain = 0
KRO1 190233Z 21012KT 25/10 A2968 RMK A01 T02470103  RH  040%=      5-min Rain = 0
KRO1 190234Z 20010KT 25/10 A2967 RMK A01 T02450101  RH  040%=      5-min Rain = 0
KRO1 190235Z 21008G15KT 25/09 A2966 RMK A01 T02460092  RH  037%=      5-min Rain = 0
KRO1 190236Z 25013G19KT 25/09 A2966 RMK A01 T02500091  RH  036%=      5-min Rain = 0
KRO1 190237Z 27014KT 26/08 A2965 RMK A01 T02560081  RH  033%=      5-min Rain = 0
KRO1 190238Z 28012KT 27/08 A2964 RMK A01 T02670075  RH  030%=      5-min Rain = 0
KRO1 190239Z 30011KT 27/09 A2965 RMK A01 T02710088  RH  032%=      5-min Rain = 0
KRO1 190240Z 29008KT 27/09 A2965 RMK A01 T02670091  RH  033%=      5-min Rain = 0
KRO1 190241Z 28008KT 26/09 A2965 RMK A01 T02630089  RH  033%=      5-min Rain = 0
KRO1 190242Z 26009KT 26/08 A2965 RMK A01 T02620083  RH  032%=      5-min Rain = 0
KRO1 190243Z 25008KT 26/08 A2965 RMK A01 T02630081  RH  032%=      5-min Rain = 0
KRO1 190244Z 23009KT 26/09 A2965 RMK A01 T02640085  RH  032%=      5-min Rain = 0
KRO1 190245Z 20013G18KT 26/09 A2966 RMK A01 T02620089  RH  033%=      5-min Rain = 0
KRO1 190246Z 18014KT 26/10 A2966 RMK A01 T02580096  RH  036%=      5-min Rain = 0
KRO1 190247Z 17010KT 25/11 A2966 RMK A01 T02540105  RH  039%=      5-min Rain = 0
KRO1 190248Z 18010KT 25/11 A2966 RMK A01 T02480109  RH  042%=      5-min Rain = 0
KRO1 190249Z 17011KT 24/11 A2966 RMK A01 T02430111  RH  044%=      5-min Rain = 0
KRO1 190250Z 16011KT 24/11 A2966 RMK A01 T02400114  RH  045%=      5-min Rain = 0
KRO1 190251Z 15010KT 24/12 A2966 RMK A01 T02370117  RH  047%=      5-min Rain = 0
KRO1 190252Z 15012KT 23/12 A2966 RMK A01 T02330116  RH  048%=      5-min Rain = 0
KRO1 190253Z 16010KT 23/11 A2966 RMK A01 T02320114  RH  047%=      5-min Rain = 0
KRO1 190254Z 16009KT 23/11 A2966 RMK A01 T02310112  RH  047%=      5-min Rain = 0
KRO1 190255Z 16009KT 23/11 A2966 RMK A01 T02310112  RH  047%=      5-min Rain = 0
KRO1 190256Z 16007KT 23/12 A2966 RMK A01 T02310115  RH  048%=      5-min Rain = 0
KRO1 190257Z 16008KT 23/12 A2966 RMK A01 T02300116  RH  049%=      5-min Rain = 0
KRO1 190258Z 14011KT 23/12 A2966 RMK A01 T02290115  RH  049%=      5-min Rain = 0
KRO1 190259Z 16012KT 23/11 A2967 RMK A01 T02290109  RH  047%=      5-min Rain = 0
KRO1 190300Z 16012KT 23/11 A2967 RMK A01 T02330108  RH  045%=      5-min Rain = 0
KRO1 190301Z 16011KT 24/11 A2967 RMK A01 T02360107  RH  044%=      5-min Rain = 0
KRO1 190302Z 16010KT 24/11 A2967 RMK A01 T02380109  RH  044%=      5-min Rain = 0
KRO1 190303Z 17010KT 24/11 A2967 RMK A01 T02380113  RH  045%=      5-min Rain = 0
KRO1 190304Z 17011KT 24/12 A2967 RMK A01 T02350115  RH  047%=      5-min Rain = 0
KRO1 190305Z 17010KT 23/11 A2967 RMK A01 T02330114  RH  047%=      5-min Rain = 0
KRO1 190306Z 18009KT 23/12 A2967 RMK A01 T02320116  RH  048%=      5-min Rain = 0
KRO1 190307Z 18008KT 23/12 A2967 RMK A01 T02300119  RH  050%=      5-min Rain = 0
KRO1 190308Z 18010KT 23/12 A2968 RMK A01 T02280122  RH  051%=      5-min Rain = 0
KRO1 190309Z 18010KT 23/12 A2968 RMK A01 T02270124  RH  052%=      5-min Rain = 0
KRO1 190310Z 16011KT 23/13 A2967 RMK A01 T02260126  RH  053%=      5-min Rain = 0
KRO1 190311Z 16011KT 23/13 A2967 RMK A01 T02260127  RH  053%=      5-min Rain = 0
KRO1 190312Z 16010KT 23/13 A2967 RMK A01 T02260128  RH  054%=      5-min Rain = 0
KRO1 190313Z 17008KT 23/13 A2968 RMK A01 T02260130  RH  055%=      5-min Rain = 0
KRO1 190314Z 19006KT 23/13 A2968 RMK A01 T02260131  RH  055%=      5-min Rain = 0
KRO1 190315Z 19008KT 23/13 A2968 RMK A01 T02260133  RH  056%=      5-min Rain = 0
KRO1 190316Z 19009KT 23/13 A2968 RMK A01 T02260134  RH  056%=      5-min Rain = 0
KRO1 190317Z 20007KT 23/13 A2969 RMK A01 T02270134  RH  056%=      5-min Rain = 0
KRO1 190318Z 24004KT 23/13 A2968 RMK A01 T02280133  RH  055%=      5-min Rain = 0
KRO1 190319Z 23007G12KT 23/13 A2969 RMK A01 T02300132  RH  054%=      5-min Rain = 0
KRO1 190320Z 21012KT 24/13 A2969 RMK A01 T02350126  RH  051%=      5-min Rain = 0
KRO1 190321Z 18017G26KT 25/12 A2968 RMK A01 T02450118  RH  045%=      5-min Rain = 0
KRO1 190322Z 20012KT 26/12 A2969 RMK A01 T02570115  RH  041%=      5-min Rain = 0
KRO1 190323Z 22012G17KT 26/11 A2969 RMK A01 T02620114  RH  040%=      5-min Rain = 0
KRO1 190324Z 20009KT 26/12 A297 RMK A01 T02630123  RH  042%=      5-min Rain = 0
KRO1 190325Z 21011KT 26/13 A297 RMK A01 T02600127  RH  044%=      5-min Rain = 0
KRO1 190326Z 21013KT 26/13 A297 RMK A01 T02560128  RH  045%=      5-min Rain = 0
KRO1 190327Z 21009KT 25/13 A297 RMK A01 T02510127  RH  046%=      5-min Rain = 0
KRO1 190328Z 21008KT 25/13 A297 RMK A01 T02470125  RH  046%=      5-min Rain = 0
KRO1 190329Z 23012KT 25/12 A297 RMK A01 T02460115  RH  044%=      5-min Rain = 0
KRO1 190330Z 22014KT 25/11 A297 RMK A01 T02500111  RH  042%=      5-min Rain = 0
KRO1 190331Z 22012KT 25/11 A297 RMK A01 T02540110  RH  040%=      5-min Rain = 0
KRO1 190332Z 22009KT 26/11 A297 RMK A01 T02560112  RH  040%=      5-min Rain = 0
KRO1 190333Z 22009KT 26/12 A297 RMK A01 T02550115  RH  041%=      5-min Rain = 0
KRO1 190334Z 21009KT 25/12 A297 RMK A01 T02520116  RH  042%=      5-min Rain = 0
KRO1 190335Z 20010KT 25/11 A297 RMK A01 T02510114  RH  042%=      5-min Rain = 0
KRO1 190336Z 21010KT 25/11 A297 RMK A01 T02510112  RH  042%=      5-min Rain = 0
KRO1 190337Z 21010KT 25/11 A297 RMK A01 T02530112  RH  041%=      5-min Rain = 0
KRO1 190338Z 21009KT 25/11 A297 RMK A01 T02530112  RH  041%=      5-min Rain = 0
KRO1 190339Z 22009KT 25/11 A297 RMK A01 T02530113  RH  042%=      5-min Rain = 0
KRO1 190340Z 22009KT 25/11 A297 RMK A01 T02530112  RH  041%=      5-min Rain = 0
KRO1 190341Z 23008KT 25/11 A297 RMK A01 T02530111  RH  041%=      5-min Rain = 0
KRO1 190342Z 23008KT 25/11 A297 RMK A01 T02530111  RH  041%=      5-min Rain = 0
KRO1 190343Z 23009KT 25/11 A297 RMK A01 T02510110  RH  041%=      5-min Rain = 0
KRO1 190344Z 24009KT 25/11 A2971 RMK A01 T02510107  RH  040%=      5-min Rain = 0
KRO1 190345Z 24009KT 25/11 A2971 RMK A01 T02510106  RH  040%=      5-min Rain = 0
KRO1 190346Z 23008KT 25/10 A297 RMK A01 T02510103  RH  039%=      5-min Rain = 0
KRO1 190347Z 24008KT 25/10 A297 RMK A01 T02510103  RH  039%=      5-min Rain = 0
KRO1 190348Z 23008KT 25/10 A297 RMK A01 T02510103  RH  039%=      5-min Rain = 0
KRO1 190349Z 23009KT 25/10 A297 RMK A01 T02500103  RH  040%=      5-min Rain = 0
KRO1 190350Z 23008KT 25/10 A297 RMK A01 T02490104  RH  040%=      5-min Rain = 0
KRO1 190351Z 24007KT 25/10 A297 RMK A01 T02480104  RH  040%=      5-min Rain = 0
KRO1 190352Z 25007KT 25/10 A297 RMK A01 T02470104  RH  041%=      5-min Rain = 0
KRO1 190353Z 25006KT 25/10 A297 RMK A01 T02460104  RH  041%=      5-min Rain = 0
KRO1 190354Z 25007KT 25/10 A297 RMK A01 T02450104  RH  041%=      5-min Rain = 0
KRO1 190355Z 25007KT 24/10 A297 RMK A01 T02440103  RH  041%=      5-min Rain = 0
KRO1 190356Z 25006KT 24/10 A297 RMK A01 T02440103  RH  041%=      5-min Rain = 0
KRO1 190357Z 24005KT 24/10 A297 RMK A01 T02440104  RH  041%=      5-min Rain = 0
KRO1 190358Z 25005KT 24/10 A297 RMK A01 T02430104  RH  041%=      5-min Rain = 0
KRO1 190359Z 25006KT 24/10 A2971 RMK A01 T02420104  RH  042%=      5-min Rain = 0
KRO1 190400Z 26007KT 24/10 A2971 RMK A01 T02410104  RH  042%=      5-min Rain = 0
KRO1 190401Z 26007KT 24/10 A2971 RMK A01 T02400102  RH  042%=      5-min Rain = 0
KRO1 190402Z 26007KT 24/10 A2971 RMK A01 T02400100  RH  041%=      5-min Rain = 0
KRO1 190403Z 26008KT 24/10 A2971 RMK A01 T02410099  RH  041%=      5-min Rain = 0
KRO1 190404Z 26009KT 24/10 A2971 RMK A01 T02430099  RH  040%=      5-min Rain = 0
KRO1 190405Z 26007KT 25/10 A2971 RMK A01 T02450099  RH  040%=      5-min Rain = 0
KRO1 190406Z 26007KT 25/10 A2971 RMK A01 T02450098  RH  039%=      5-min Rain = 0
KRO1 190407Z 26009KT 25/10 A2971 RMK A01 T02460096  RH  039%=      5-min Rain = 0
KRO1 190408Z 26008KT 25/09 A2971 RMK A01 T02470094  RH  038%=      5-min Rain = 0
KRO1 190409Z 26006KT 25/09 A2971 RMK A01 T02480093  RH  037%=      5-min Rain = 0
KRO1 190410Z 26006KT 25/10 A2971 RMK A01 T02480095  RH  038%=      5-min Rain = 0
KRO1 190411Z 26006KT 25/10 A2971 RMK A01 T02460096  RH  038%=      5-min Rain = 0
KRO1 190412Z 26007KT 25/10 A2971 RMK A01 T02450096  RH  039%=      5-min Rain = 0
KRO1 190413Z 26007KT 24/10 A2971 RMK A01 T02440096  RH  039%=      5-min Rain = 0
KRO1 190414Z 26007KT 24/10 A2971 RMK A01 T02430095  RH  039%=      5-min Rain = 0
KRO1 190415Z 26009KT 24/09 A2971 RMK A01 T02430093  RH  039%=      5-min Rain = 0
KRO1 190416Z 26008KT 24/09 A2971 RMK A01 T02430092  RH  038%=      5-min Rain = 0
KRO1 190417Z 25009KT 24/09 A2971 RMK A01 T02440091  RH  038%=      5-min Rain = 0
KRO1 190418Z 25010KT 25/09 A2971 RMK A01 T02450089  RH  037%=      5-min Rain = 0
KRO1 190419Z 26012KT 25/09 A2971 RMK A01 T02460087  RH  036%=      5-min Rain = 0
KRO1 190420Z 26012KT 25/09 A2971 RMK A01 T02480085  RH  035%=      5-min Rain = 0
KRO1 190421Z 26009KT 25/08 A2971 RMK A01 T02500084  RH  035%=      5-min Rain = 0
KRO1 190422Z 26009KT 25/08 A2971 RMK A01 T02510084  RH  034%=      5-min Rain = 0
KRO1 190423Z 26010KT 25/08 A2971 RMK A01 T02510084  RH  035%=      5-min Rain = 0
KRO1 190424Z 26009KT 25/08 A2971 RMK A01 T02490084  RH  035%=      5-min Rain = 0
KRO1 190425Z 26011KT 25/08 A2971 RMK A01 T02480082  RH  035%=      5-min Rain = 0
KRO1 190426Z 26009KT 25/08 A2971 RMK A01 T02500078  RH  033%=      5-min Rain = 0
KRO1 190427Z 26009KT 25/08 A2971 RMK A01 T02510079  RH  033%=      5-min Rain = 0
KRO1 190428Z 25007KT 25/08 A2971 RMK A01 T02500081  RH  034%=      5-min Rain = 0
KRO1 190429Z 25006KT 25/08 A2971 RMK A01 T02480081  RH  035%=      5-min Rain = 0
KRO1 190430Z 25007KT 25/08 A2971 RMK A01 T02460082  RH  035%=      5-min Rain = 0
KRO1 190431Z 26007KT 24/08 A2971 RMK A01 T02440082  RH  036%=      5-min Rain = 0
KRO1 190432Z 26008KT 24/08 A2971 RMK A01 T02420082  RH  036%=      5-min Rain = 0
KRO1 190433Z 27007KT 24/08 A2971 RMK A01 T02410081  RH  036%=      5-min Rain = 0
KRO1 190434Z 26007KT 24/08 A2971 RMK A01 T02400081  RH  036%=      5-min Rain = 0
KRO1 190435Z 26007KT 24/08 A2971 RMK A01 T02400081  RH  036%=      5-min Rain = 0
KRO1 190436Z 26007KT 24/08 A2971 RMK A01 T02400081  RH  036%=      5-min Rain = 0
KRO1 190437Z 27007KT 24/08 A2971 RMK A01 T02390081  RH  036%=      5-min Rain = 0
KRO1 190438Z 27007KT 24/08 A2971 RMK A01 T02380080  RH  036%=      5-min Rain = 0
KRO1 190439Z 27007KT 24/08 A2971 RMK A01 T02380079  RH  036%=      5-min Rain = 0
KRO1 190440Z 27007KT 24/08 A2971 RMK A01 T02390079  RH  036%=      5-min Rain = 0
KRO1 190441Z 27006KT 24/08 A2971 RMK A01 T02390078  RH  036%=      5-min Rain = 0
KRO1 190442Z 27006KT 24/08 A2971 RMK A01 T02390078  RH  036%=      5-min Rain = 0
KRO1 190443Z 26006KT 24/08 A2971 RMK A01 T02390079  RH  036%=      5-min Rain = 0
KRO1 190444Z 25006KT 24/08 A2971 RMK A01 T02390078  RH  036%=      5-min Rain = 0
KRO1 190445Z 26005KT 24/08 A2971 RMK A01 T02380078  RH  036%=      5-min Rain = 0
KRO1 190446Z 26005KT 24/08 A2971 RMK A01 T02360078  RH  036%=      5-min Rain = 0
KRO1 190447Z 26006KT 24/08 A2971 RMK A01 T02350078  RH  037%=      5-min Rain = 0
KRO1 190448Z 26005KT 23/08 A2971 RMK A01 T02340076  RH  036%=      5-min Rain = 0
KRO1 190449Z 26006KT 23/08 A2971 RMK A01 T02340076  RH  036%=      5-min Rain = 0
KRO1 190450Z 26005KT 23/08 A2971 RMK A01 T02340077  RH  037%=      5-min Rain = 0
KRO1 190451Z 26005KT 23/08 A2971 RMK A01 T02320078  RH  037%=      5-min Rain = 0
KRO1 190452Z 26005KT 23/08 A2971 RMK A01 T02300078  RH  038%=      5-min Rain = 0
KRO1 190453Z 25006KT 23/08 A2971 RMK A01 T02290078  RH  038%=      5-min Rain = 0
KRO1 190454Z 25005KT 23/08 A2971 RMK A01 T02270079  RH  038%=      5-min Rain = 0
KRO1 190455Z 25005KT 23/08 A2971 RMK A01 T02250079  RH  039%=      5-min Rain = 0
KRO1 190456Z 25005KT 22/08 A2971 RMK A01 T02240079  RH  039%=      5-min Rain = 0
KRO1 190457Z 25005KT 22/08 A2971 RMK A01 T02230080  RH  040%=      5-min Rain = 0
KRO1 190458Z 25005KT 22/08 A2971 RMK A01 T02220079  RH  040%=      5-min Rain = 0
KRO1 190459Z 25005KT 22/08 A2971 RMK A01 T02210080  RH  040%=      5-min Rain = 0

Page generated in 0.0766 seconds.